Trollface drawn in the sky (27th of May, 2020)

Aircraft DV20 Reg No. D-EMPY Age N/A
Model DA 20 Piston engine 1 First flight N/A
Registered 22-09-15 Rollout N/A Delivered N/A
Construction No. 10112 Line No. N/A Series -A1
ADSHEX 3D25F6 Airline name N/A Owner N/A
Airfield based N/A First tracked N/A

Flight history for D-EMPY

Route Flight No Date Playback
???? N/A 2020-07-03 15:45:00
???? N/A 2020-07-01 15:11:00
???? N/A 2020-06-30 17:15:00
???? N/A 2020-06-27 15:21:00
???? N/A 2020-06-27 14:23:00
???? N/A 2020-06-26 14:22:00
???? N/A 2020-06-24 15:33:00
???? N/A 2020-06-23 16:33:00
???? N/A 2020-06-21 17:52:00
???? N/A 2020-06-20 14:49:00
???? N/A 2020-06-18 15:50:00
???? N/A 2020-06-15 15:07:00
???? N/A 2020-06-13 14:48:00
???? N/A 2020-06-12 15:13:00
???? N/A 2020-05-30 14:48:00
???? N/A 2020-05-30 15:20:00
???? N/A 2020-05-30 09:30:00
???? N/A 2020-05-29 09:29:00
???? N/A 2020-05-29 07:31:00
???? N/A 2020-05-27 14:50:00
Time Lat Lon Altitude Heading Speed Vertical Rate
2020-05-27 14:49:41 GMT 47.666107 9.498161 975 60 60
2020-05-27 14:49:37 GMT 47.665512 9.496582 1,000 60 60
2020-05-27 14:49:28 GMT 47.664185 9.493244 1,075 61 59
2020-05-27 14:49:21 GMT 47.663361 9.490952 1,100 58 61
2020-05-27 14:49:17 GMT 47.662766 9.489510 1,125 60 62
2020-05-27 14:49:12 GMT 47.661942 9.487381 1,200 60 63
2020-05-27 14:49:07 GMT 47.661346 9.485664 1,225 64 66
2020-05-27 14:49:00 GMT 47.660648 9.482962 1,325 82 67
2020-05-27 14:48:57 GMT 47.660648 9.481131 1,375 105 71
2020-05-27 14:48:49 GMT 47.661625 9.477328 1,425 126 78
2020-05-27 14:48:46 GMT 47.662033 9.476463 1,425 137 78
2020-05-27 14:48:40 GMT 47.663818 9.474541 1,500 151 78
2020-05-27 14:48:36 GMT 47.665100 9.473511 1,525 155 78
2020-05-27 14:48:30 GMT 47.667072 9.472257 1,550 158 77
2020-05-27 14:48:27 GMT 47.668373 9.471482 1,575 161 80
2020-05-27 14:48:21 GMT 47.670609 9.470497 1,625 169 89
2020-05-27 14:48:16 GMT 47.672470 9.470074 1,625 177 90
2020-05-27 14:48:10 GMT 47.674896 9.470352 1,625 195 89
2020-05-27 14:48:06 GMT 47.676498 9.470970 1,650 204 90
2020-05-27 14:48:00 GMT 47.678757 9.473102 1,700 226 87
2020-05-27 14:47:56 GMT 47.679779 9.474792 1,750 236 89
2020-05-27 14:47:49 GMT 47.681271 9.477962 1,750 236 97
2020-05-27 14:47:46 GMT 47.682339 9.480286 1,775 236 107
2020-05-27 14:47:40 GMT 47.684052 9.483948 1,775 236 114
2020-05-27 14:47:35 GMT 47.685425 9.486900 1,825 236 115
2020-05-27 14:47:29 GMT 47.687229 9.490638 1,850 235 114
2020-05-27 14:47:25 GMT 47.688393 9.493173 1,875 235 114
2020-05-27 14:47:20 GMT 47.690506 9.497200 1,925 234 113
2020-05-27 14:47:15 GMT 47.691696 9.499603 1,950 232 113
2020-05-27 14:47:09 GMT 47.693848 9.503311 1,975 227 113
2020-05-27 14:47:05 GMT 47.695141 9.505427 2,000 222 112
2020-05-27 14:46:58 GMT 47.697887 9.508526 2,025 211 115
2020-05-27 14:46:55 GMT 47.699799 9.510075 2,050 210 116
2020-05-27 14:46:48 GMT 47.702682 9.512540 2,075 211 117
2020-05-27 14:46:45 GMT 47.704422 9.514023 2,150 211 116
2020-05-27 14:46:39 GMT 47.707306 9.516495 2,175 210 116
2020-05-27 14:46:34 GMT 47.709366 9.518211 2,225 210 115
2020-05-27 14:46:29 GMT 47.712112 9.520340 2,225 207 117
2020-05-27 14:46:24 GMT 47.714035 9.521782 2,250 207 118
2020-05-27 14:46:15 GMT 47.718884 9.526273 2,300 219 118
2020-05-27 14:46:08 GMT 47.721489 9.529302 2,325 219 119
2020-05-27 14:46:04 GMT 47.723099 9.531189 2,375 218 120
2020-05-27 14:45:57 GMT 47.726532 9.535034 2,450 217 130
2020-05-27 14:45:53 GMT 47.728287 9.536837 2,475 216 125
2020-05-27 14:45:48 GMT 47.730881 9.539497 2,525 217 130
2020-05-27 14:45:44 GMT 47.732849 9.541557 2,575 215 129
2020-05-27 14:45:37 GMT 47.735783 9.544584 2,600 214 132
2020-05-27 14:45:33 GMT 47.738251 9.547049 2,650 216 131
2020-05-27 14:45:27 GMT 47.741413 9.550570 2,700 218 129
2020-05-27 14:45:24 GMT 47.742599 9.551926 2,725 217 128
2020-05-27 14:45:20 GMT 47.744659 9.554123 2,725 216 129
2020-05-27 14:45:17 GMT 47.745987 9.555496 2,750 215 129
2020-05-27 14:45:14 GMT 47.747681 9.557281 2,775 215 131
2020-05-27 14:45:09 GMT 47.749607 9.559162 2,825 213 135
2020-05-27 14:45:03 GMT 47.753147 9.562472 2,850 210 141
2020-05-27 14:44:59 GMT 47.755474 9.564373 2,875 209 143
2020-05-27 14:44:53 GMT 47.758965 9.567331 3,025 213 146
2020-05-27 14:44:48 GMT 47.761871 9.570053 3,125 212 149
2020-05-27 14:44:43 GMT 47.764755 9.572594 3,250 209 148
2020-05-27 14:44:39 GMT 47.767136 9.574448 3,350 208 144
2020-05-27 14:44:31 GMT 47.771721 9.577965 3,500 205 143
2020-05-27 14:44:27 GMT 47.774597 9.579872 3,650 202 142
2020-05-27 14:44:22 GMT 47.778076 9.581795 3,800 201 140
2020-05-27 14:44:17 GMT 47.780613 9.583177 3,875 204 140
2020-05-27 14:44:10 GMT 47.784439 9.585640 4,025 204 140
2020-05-27 14:44:06 GMT 47.787689 9.587754 4,125 205 140
2020-05-27 14:44:00 GMT 47.790436 9.589691 4,200 207 142
2020-05-27 14:43:53 GMT 47.794830 9.592987 4,275 207 144
2020-05-27 14:43:50 GMT 47.796299 9.594022 4,350 206 144
2020-05-27 14:43:46 GMT 47.798584 9.595596 4,425 202 145
2020-05-27 14:43:41 GMT 47.801880 9.597519 4,525 201 145
2020-05-27 14:43:38 GMT 47.804123 9.598824 4,575 203 145
2020-05-27 14:43:30 GMT 47.809021 9.601982 4,750 205 145
2020-05-27 14:43:27 GMT 47.810730 9.603107 4,775 204 147
2020-05-27 14:43:20 GMT 47.815247 9.605924 4,875 202 150
2020-05-27 14:43:12 GMT 47.820229 9.609586 4,975 263 145
2020-05-27 14:42:59 GMT 47.820740 9.620361 5,275 327 128
2020-05-27 14:42:55 GMT 47.817806 9.621418 5,325 12 123
2020-05-27 14:42:52 GMT 47.816551 9.620925 5,325 25 123
2020-05-27 14:42:49 GMT 47.815388 9.620080 5,325 55 124
2020-05-27 14:42:40 GMT 47.813461 9.612419 5,375 104 123
2020-05-27 14:42:34 GMT 47.814560 9.607887 5,475 128 123
2020-05-27 14:42:30 GMT 47.816254 9.605209 5,525 145 124
2020-05-27 14:42:19 GMT 47.821747 9.602257 5,600 176 128
2020-05-27 14:42:16 GMT 47.823898 9.602325 5,600 188 131
2020-05-27 14:42:09 GMT 47.827908 9.604023 5,625 213 133
2020-05-27 14:42:05 GMT 47.829758 9.605965 5,675 227 132
2020-05-27 14:42:01 GMT 47.831589 9.609055 5,700 239 136
2020-05-27 14:41:56 GMT 47.833309 9.613037 5,675 239 137
2020-05-27 14:41:51 GMT 47.834976 9.617157 5,700 241 137
2020-05-27 14:41:46 GMT 47.836613 9.621206 5,725 238 137
2020-05-27 14:41:41 GMT 47.838226 9.624985 5,700 235 140
2020-05-27 14:41:36 GMT 47.840340 9.629094 5,725 231 138
2020-05-27 14:41:31 GMT 47.843719 9.634323 5,750 221 136
2020-05-27 14:41:25 GMT 47.844948 9.635714 5,750 214 136
2020-05-27 14:41:18 GMT 47.848763 9.639094 5,775 210 136
2020-05-27 14:41:15 GMT 47.850395 9.640573 5,800 215 139
2020-05-27 14:41:10 GMT 47.853104 9.643387 5,875 219 137
2020-05-27 14:41:06 GMT 47.855656 9.646348 5,900 219 137
2020-05-27 14:41:01 GMT 47.858028 9.649236 5,925 220 135
2020-05-27 14:40:55 GMT 47.860588 9.652405 5,975 220 137
2020-05-27 14:40:50 GMT 47.863148 9.655574 6,000 221 136
2020-05-27 14:40:45 GMT 47.865475 9.658602 6,050 222 136
2020-05-27 14:40:40 GMT 47.867889 9.661720 6,050 219 141
2020-05-27 14:40:32 GMT 47.871872 9.666733 6,150 223 139
2020-05-27 14:40:28 GMT 47.873795 9.669411 6,225 223 141
2020-05-27 14:40:22 GMT 47.876698 9.673321 6,200 222 147
2020-05-27 14:40:18 GMT 47.878883 9.676349 6,275 225 147
2020-05-27 14:40:15 GMT 47.880371 9.678533 6,325 226 147
2020-05-27 14:40:08 GMT 47.883678 9.683744 6,450 230 143
2020-05-27 14:40:05 GMT 47.884842 9.685716 6,500 230 143
2020-05-27 14:39:59 GMT 47.887207 9.689804 6,550 229 142
2020-05-27 14:39:55 GMT 47.889359 9.693443 6,625 229 142
2020-05-27 14:39:50 GMT 47.891777 9.697406 6,675 226 142
2020-05-27 14:39:43 GMT 47.894943 9.701984 6,750 208 140
2020-05-27 14:39:39 GMT 47.896435 9.703815 6,800 218 140
2020-05-27 14:39:33 GMT 47.899612 9.707039 6,875 202 146
2020-05-27 14:39:27 GMT 47.903595 9.709717 6,900 201 148
2020-05-27 14:39:24 GMT 47.905884 9.710884 6,925 194 151
2020-05-27 14:39:19 GMT 47.908676 9.711984 7,000 193 151
2020-05-27 14:39:13 GMT 47.913208 9.713356 7,125 189 149
2020-05-27 14:39:10 GMT 47.915054 9.713816 7,200 185 148
2020-05-27 14:39:07 GMT 47.917194 9.714168 7,250 178 147
2020-05-27 14:39:03 GMT 47.919571 9.714238 7,350 171 147
2020-05-27 14:39:00 GMT 47.921989 9.713745 7,400 164 149
2020-05-27 14:38:57 GMT 47.923759 9.713182 7,825 145 148
2020-05-27 14:38:52 GMT 47.927204 9.711421 7,500 155 149
2020-05-27 14:38:49 GMT 47.929718 9.709660 7,550 119 147
2020-05-27 14:38:43 GMT 47.932465 9.706984 7,625 137 148
2020-05-27 14:38:39 GMT 47.934326 9.703533 7,750 109 147
2020-05-27 14:38:33 GMT 47.935307 9.698252 7,750 88 151
2020-05-27 14:38:29 GMT 47.935135 9.692619 7,850 86 151
2020-05-27 14:38:26 GMT 47.935043 9.690285 7,900 87 151
2020-05-27 14:38:22 GMT 47.934952 9.686714 7,950 88 151
2020-05-27 14:38:17 GMT 47.935024 9.680364 8,125 91 150
2020-05-27 14:38:12 GMT 47.935089 9.676140 8,225 90 149
2020-05-27 14:38:08 GMT 47.935089 9.672020 8,300 89 149
2020-05-27 14:38:05 GMT 47.935120 9.669166 8,350 88 148
2020-05-27 14:38:02 GMT 47.934952 9.665359 8,450 87 146
2020-05-27 14:37:57 GMT 47.934837 9.660715 8,525 88 145
2020-05-27 14:37:54 GMT 47.934769 9.656982 8,650 87 143
2020-05-27 14:37:49 GMT 47.934608 9.652898 8,750 91 140
2020-05-27 14:37:46 GMT 47.934494 9.650528 8,750 86 142
2020-05-27 14:37:43 GMT 47.934402 9.647026 8,825 89 141
2020-05-27 14:37:36 GMT 47.934467 9.640010 8,975 90 138
2020-05-27 14:37:33 GMT 47.934494 9.637413 9,000 90 136
2020-05-27 14:37:29 GMT 47.934540 9.633636 9,050 92 134
2020-05-27 14:37:26 GMT 47.934654 9.630996 9,150 95 131
2020-05-27 14:37:23 GMT 47.934837 9.627897 9,175 96 129
2020-05-27 14:37:20 GMT 47.934998 9.626083 9,200 98 128
2020-05-27 14:37:17 GMT 47.935364 9.622238 9,250 100 127
2020-05-27 14:37:13 GMT 47.935776 9.619217 9,250 100 127
2020-05-27 14:37:06 GMT 47.936462 9.613586 9,325 102 123
2020-05-27 14:37:03 GMT 47.936890 9.610784 9,350 104 122
2020-05-27 14:36:56 GMT 47.937866 9.605431 9,375 103 121
2020-05-27 14:36:53 GMT 47.938248 9.602737 9,375 102 120
2020-05-27 14:36:49 GMT 47.938797 9.598892 9,450 100 120
2020-05-27 14:36:46 GMT 47.939026 9.597038 9,450 99 117
2020-05-27 14:36:42 GMT 47.939308 9.594445 9,450 98 116
2020-05-27 14:36:37 GMT 47.940102 9.587966 9,500 101 111
2020-05-27 14:36:30 GMT 47.940536 9.585228 9,525 102 106
2020-05-27 14:36:26 GMT 47.941032 9.581909 9,525 101 106
2020-05-27 14:36:23 GMT 47.941406 9.579185 9,525 100 105
2020-05-27 14:36:20 GMT 47.941635 9.577472 9,525 98 105
2020-05-27 14:36:17 GMT 47.941956 9.574791 9,525 94 96
2020-05-27 14:36:14 GMT 47.942093 9.573555 9,500 99 105
2020-05-27 14:36:10 GMT 47.942688 9.567856 9,500 98 105
2020-05-27 14:36:06 GMT 47.942688 9.567856 9,500 98 105
2020-05-27 14:36:02 GMT 47.943031 9.564585 9,500 98 104
2020-05-27 14:35:59 GMT 47.943237 9.562500 9,475 99 103
2020-05-27 14:35:55 GMT 47.943649 9.559341 9,500 98 100
2020-05-27 14:35:52 GMT 47.943775 9.557753 9,525 97 97
2020-05-27 14:35:49 GMT 47.943924 9.556183 9,500 93 95
2020-05-27 14:35:46 GMT 47.944012 9.553950 9,500 93 95
2020-05-27 14:35:43 GMT 47.944107 9.552132 9,500 93 95
2020-05-27 14:35:40 GMT 47.944244 9.549179 9,475 94 95
2020-05-27 14:35:35 GMT 47.944427 9.545922 9,450 95 97
2020-05-27 14:35:32 GMT 47.944477 9.545006 9,425 95 98
2020-05-27 14:35:29 GMT 47.944660 9.542682 9,375 94 105
2020-05-27 14:35:26 GMT 47.944794 9.540665 9,400 96 100
2020-05-27 14:35:22 GMT 47.945221 9.535710 9,350 99 102
2020-05-27 14:35:19 GMT 47.945454 9.533527 9,350 99 102
2020-05-27 14:35:16 GMT 47.945454 9.533527 9,350 99 102
2020-05-27 14:35:13 GMT 47.945732 9.531273 9,325 98 103
2020-05-27 14:35:09 GMT 47.946304 9.525009 9,300 97 103
2020-05-27 14:35:04 GMT 47.946487 9.522812 9,300 96 104
2020-05-27 14:34:58 GMT 47.946617 9.521062 9,275 94 104
2020-05-27 14:34:54 GMT 47.947083 9.513542 9,250 95 105
2020-05-27 14:34:49 GMT 47.947083 9.513542 9,250 95 105
2020-05-27 14:34:43 GMT 47.947357 9.510109 9,250 98 104
2020-05-27 14:34:38 GMT 47.947689 9.506484 9,250 98 103
2020-05-27 14:34:35 GMT 47.947968 9.504019 9,250 100 103
2020-05-27 14:34:31 GMT 47.948273 9.501663 9,250 100 103
2020-05-27 14:34:28 GMT 47.948547 9.499260 9,200 98 104
2020-05-27 14:34:24 GMT 47.948898 9.495920 9,175 97 105
2020-05-27 14:34:18 GMT 47.949085 9.492117 9,150 107 107
2020-05-27 14:34:13 GMT 47.949970 9.488807 9,175 123 111
2020-05-27 14:34:07 GMT 47.951599 9.485075 9,150 122 112
2020-05-27 14:34:04 GMT 47.952393 9.483261 9,150 122 112
2020-05-27 14:34:01 GMT 47.953461 9.480779 9,150 122 113
2020-05-27 14:33:58 GMT 47.954205 9.479018 9,150 122 113
2020-05-27 14:33:54 GMT 47.955322 9.476326 9,150 121 112
2020-05-27 14:33:51 GMT 47.956238 9.474197 9,150 121 112
2020-05-27 14:33:46 GMT 47.957417 9.471201 9,125 121 112
2020-05-27 14:33:43 GMT 47.958393 9.468806 9,125 121 112
2020-05-27 14:33:40 GMT 47.958984 9.467262 9,150 120 111
2020-05-27 14:33:37 GMT 47.959717 9.465477 9,150 119 112
2020-05-27 14:33:34 GMT 47.961456 9.460808 9,125 117 110
2020-05-27 14:33:30 GMT 47.961456 9.460808 9,150 117 110
2020-05-27 14:33:25 GMT 47.963795 9.453735 9,125 115 109
2020-05-27 14:33:21 GMT 47.963795 9.453735 9,100 114 110
2020-05-27 14:33:18 GMT 47.964401 9.451834 9,100 113 108
2020-05-27 14:33:13 GMT 47.965485 9.448174 9,100 112 108
2020-05-27 14:33:04 GMT 47.967194 9.442608 9,075 127 109
2020-05-27 14:33:00 GMT 47.968323 9.440620 9,050 144 112
2020-05-27 14:32:55 GMT 47.970638 9.438876 9,050 156 116
2020-05-27 14:32:52 GMT 47.972221 9.437819 9,050 156 119
2020-05-27 14:32:46 GMT 47.975830 9.436707 9,000 216 117
2020-05-27 14:32:40 GMT 47.977669 9.439509 9,075 270 110
2020-05-27 14:32:37 GMT 47.977669 9.442186 9,125 310 107
2020-05-27 14:32:34 GMT 47.975327 9.446732 9,100 309 108
2020-05-27 14:32:29 GMT 47.975327 9.446732 9,100 308 109
2020-05-27 14:32:24 GMT 47.973618 9.450355 9,100 297 110
2020-05-27 14:32:21 GMT 47.972900 9.452637 9,100 294 111
2020-05-27 14:32:16 GMT 47.972130 9.455214 9,125 294 110
2020-05-27 14:32:13 GMT 47.971436 9.457512 9,125 295 109
2020-05-27 14:32:10 GMT 47.970825 9.459510 9,125 295 109
2020-05-27 14:32:07 GMT 47.970127 9.461905 9,125 295 109
2020-05-27 14:32:02 GMT 47.969147 9.464996 9,125 296 108
2020-05-27 14:31:59 GMT 47.968552 9.466782 9,125 297 109
2020-05-27 14:31:56 GMT 47.967865 9.468910 9,125 296 107
2020-05-27 14:31:53 GMT 47.967052 9.471412 9,125 296 107
2020-05-27 14:31:50 GMT 47.966167 9.474088 9,125 296 108
2020-05-27 14:31:45 GMT 47.965393 9.476532 9,150 295 107
2020-05-27 14:31:42 GMT 47.964706 9.478661 9,150 295 106
2020-05-27 14:31:39 GMT 47.964123 9.480567 9,150 296 106
2020-05-27 14:31:36 GMT 47.962864 9.484652 9,150 296 107
2020-05-27 14:31:33 GMT 47.962864 9.484652 9,125 296 107
2020-05-27 14:31:29 GMT 47.961979 9.487258 9,125 297 106
2020-05-27 14:31:26 GMT 47.961365 9.489166 9,125 299 107
2020-05-27 14:31:22 GMT 47.959606 9.493878 9,125 299 108
2020-05-27 14:31:16 GMT 47.958115 9.498230 9,100 298 108
2020-05-27 14:31:13 GMT 47.958115 9.498230 9,125 301 108
2020-05-27 14:31:09 GMT 47.957138 9.500498 9,125 306 106
2020-05-27 14:31:06 GMT 47.956284 9.502213 9,150 295 107
2020-05-27 14:31:02 GMT 47.955555 9.504723 9,125 285 108
2020-05-27 14:30:58 GMT 47.955181 9.507681 9,125 279 109
2020-05-27 14:30:54 GMT 47.954948 9.510639 9,125 277 109
2020-05-27 14:30:51 GMT 47.954716 9.513949 9,125 276 109
2020-05-27 14:30:47 GMT 47.954636 9.515671 9,125 273 110
2020-05-27 14:30:44 GMT 47.954483 9.518245 9,100 274 110
2020-05-27 14:30:40 GMT 47.954391 9.521344 9,100 272 110
2020-05-27 14:30:36 GMT 47.954391 9.525217 9,100 270 110
2020-05-27 14:30:32 GMT 47.954407 9.527481 9,100 267 111
2020-05-27 14:30:28 GMT 47.954544 9.530365 9,100 266 111
2020-05-27 14:30:25 GMT 47.954681 9.533112 9,075 273 112
2020-05-27 14:30:22 GMT 47.954681 9.535103 9,050 276 110
2020-05-27 14:30:19 GMT 47.954498 9.537849 9,075 276 110
2020-05-27 14:30:15 GMT 47.954346 9.540288 9,075 275 110
2020-05-27 14:30:11 GMT 47.954178 9.542862 9,075 275 110
2020-05-27 14:30:07 GMT 47.954041 9.546227 9,075 273 112
2020-05-27 14:30:04 GMT 47.953903 9.549248 9,075 272 112
2020-05-27 14:30:01 GMT 47.953880 9.550781 9,075 272 112
2020-05-27 14:29:58 GMT 47.953857 9.553230 9,050 271 112
2020-05-27 14:29:55 GMT 47.953812 9.555634 9,050 270 111
2020-05-27 14:29:52 GMT 47.953812 9.558380 9,050 270 112
2020-05-27 14:29:48 GMT 47.953880 9.560993 9,050 269 111
2020-05-27 14:29:43 GMT 47.953880 9.565007 9,050 268 110
2020-05-27 14:29:40 GMT 47.953972 9.566697 9,050 268 110
2020-05-27 14:29:37 GMT 47.954063 9.569303 9,050 265 109
2020-05-27 14:29:31 GMT 47.954346 9.573881 9,050 267 109
2020-05-27 14:29:28 GMT 47.954483 9.576275 9,050 268 110
2020-05-27 14:29:23 GMT 47.954578 9.580219 9,050 269 111
2020-05-27 14:29:20 GMT 47.954636 9.582413 9,050 267 111
2020-05-27 14:29:17 GMT 47.954670 9.584515 9,050 265 111
2020-05-27 14:29:13 GMT 47.954903 9.587966 9,050 266 110
2020-05-27 14:29:10 GMT 47.954956 9.589485 9,050 267 109
2020-05-27 14:29:07 GMT 47.955044 9.592262 9,050 268 108
2020-05-27 14:29:03 GMT 47.955090 9.595220 9,050 268 107
2020-05-27 14:29:00 GMT 47.955135 9.596839 9,050 265 107
2020-05-27 14:28:56 GMT 47.955231 9.600079 9,050 267 107
2020-05-27 14:28:50 GMT 47.955414 9.604304 9,050 266 108
2020-05-27 14:28:47 GMT 47.955597 9.607132 9,050 262 107
2020-05-27 14:28:41 GMT 47.955929 9.611840 9,050 264 107
2020-05-27 14:28:37 GMT 47.956192 9.615234 9,025 263 108
2020-05-27 14:28:33 GMT 47.956467 9.617844 9,000 263 108
2020-05-27 14:28:30 GMT 47.956627 9.619305 9,000 262 107
2020-05-27 14:28:27 GMT 47.956814 9.621488 9,000 263 106
2020-05-27 14:28:21 GMT 47.957336 9.628418 9,000 265 105
2020-05-27 14:28:18 GMT 47.957336 9.628418 9,000 265 105
2020-05-27 14:28:13 GMT 47.957603 9.631770 8,975 265 105
2020-05-27 14:28:10 GMT 47.957748 9.634117 8,975 265 105
2020-05-27 14:28:07 GMT 47.957882 9.636207 8,975 264 105
2020-05-27 14:28:03 GMT 47.958160 9.639165 8,950 264 105
2020-05-27 14:27:58 GMT 47.958488 9.642897 8,975 262 105
2020-05-27 14:27:55 GMT 47.958664 9.644691 8,975 261 105
2020-05-27 14:27:50 GMT 47.959091 9.648602 8,950 261 105
2020-05-27 14:27:45 GMT 47.959442 9.651901 8,950 261 106
2020-05-27 14:27:40 GMT 47.959930 9.655856 8,950 260 105
2020-05-27 14:27:36 GMT 47.960258 9.658391 8,925 259 106
2020-05-27 14:27:30 GMT 47.960999 9.663231 8,900 260 107
2020-05-27 14:27:26 GMT 47.961235 9.665363 8,900 261 108
2020-05-27 14:27:19 GMT 47.961792 9.670504 8,900 259 109
2020-05-27 14:27:16 GMT 47.962189 9.673325 8,875 259 109
2020-05-27 14:27:09 GMT 47.962818 9.678040 8,875 258 110
2020-05-27 14:27:06 GMT 47.963196 9.680534 8,875 258 111
2020-05-27 14:27:00 GMT 47.963928 9.685135 8,850 256 111
2020-05-27 14:26:56 GMT 47.964386 9.688087 8,850 256 113
2020-05-27 14:26:51 GMT 47.965668 9.695297 8,850 256 110
2020-05-27 14:26:46 GMT 47.965668 9.695297 8,875 255 110
2020-05-27 14:26:36 GMT 47.967148 9.702477 8,900 251 109
2020-05-27 14:26:29 GMT 47.968449 9.707759 8,900 249 109
2020-05-27 14:26:26 GMT 47.969009 9.709942 8,900 248 109
2020-05-27 14:26:16 GMT 47.971710 9.715897 8,950 200 104
2020-05-27 14:26:09 GMT 47.975281 9.716171 8,925 177 107
2020-05-27 14:26:05 GMT 47.976643 9.716069 8,900 177 108
2020-05-27 14:26:00 GMT 47.979492 9.715897 8,900 177 108
2020-05-27 14:25:57 GMT 47.980728 9.715828 8,875 177 108
2020-05-27 14:25:54 GMT 47.982513 9.715691 8,875 176 107
2020-05-27 14:25:48 GMT 47.985210 9.715365 8,850 174 107
2020-05-27 14:25:42 GMT 47.988049 9.714872 8,875 171 102
2020-05-27 14:25:38 GMT 47.990341 9.714317 8,850 170 101
2020-05-27 14:25:29 GMT 47.994427 9.714168 8,775 186 107
2020-05-27 14:25:25 GMT 47.996521 9.714455 8,750 170 113
2020-05-27 14:25:18 GMT 47.999771 9.712051 8,650 95 114
2020-05-27 14:25:15 GMT 48.000011 9.709660 8,700 54 108
2020-05-27 14:25:10 GMT 47.998104 9.706984 8,750 27 107
2020-05-27 14:25:07 GMT 47.997299 9.706284 8,750 27 107
2020-05-27 14:25:02 GMT 47.994965 9.704498 8,750 25 107
2020-05-27 14:24:58 GMT 47.992702 9.702829 8,750 25 107
2020-05-27 14:24:55 GMT 47.991306 9.701843 8,750 25 108
2020-05-27 14:24:47 GMT 47.988140 9.699519 8,750 27 109
2020-05-27 14:24:44 GMT 47.986744 9.698463 8,750 27 108
2020-05-27 14:24:40 GMT 47.984791 9.696913 8,750 51 118
2020-05-27 14:24:37 GMT 47.983475 9.695915 8,750 25 110
2020-05-27 14:24:34 GMT 47.981579 9.694589 8,725 27 112
2020-05-27 14:24:23 GMT 47.977890 9.690010 8,700 57 117
2020-05-27 14:24:20 GMT 47.976929 9.687813 8,725 61 117
2020-05-27 14:24:17 GMT 47.976040 9.685223 8,750 62 116
2020-05-27 14:24:13 GMT 47.975143 9.682457 8,750 62 116
2020-05-27 14:24:04 GMT 47.972488 9.674904 8,800 62 115
2020-05-27 14:23:58 GMT 47.971527 9.672157 8,850 62 113
2020-05-27 14:23:55 GMT 47.970406 9.668955 8,875 60 111
2020-05-27 14:23:47 GMT 47.968460 9.664261 8,925 61 110
2020-05-27 14:23:44 GMT 47.967911 9.662407 8,875 76 110
2020-05-27 14:23:41 GMT 47.967499 9.659798 8,875 86 110
2020-05-27 14:23:37 GMT 47.967381 9.656630 8,900 89 110
2020-05-27 14:23:33 GMT 47.967381 9.654306 8,900 89 110
2020-05-27 14:23:28 GMT 47.967316 9.649841 8,925 88 110
2020-05-27 14:23:24 GMT 47.967270 9.647095 8,900 87 111
2020-05-27 14:23:18 GMT 47.967098 9.642545 8,900 88 112
2020-05-27 14:23:14 GMT 47.967087 9.638992 8,925 90 111
2020-05-27 14:23:06 GMT 47.967087 9.633224 8,925 89 110
2020-05-27 14:23:03 GMT 47.967052 9.631489 8,925 90 109
2020-05-27 14:23:00 GMT 47.967098 9.625925 8,950 90 106
2020-05-27 14:22:56 GMT 47.967098 9.625925 8,950 90 107
2020-05-27 14:22:53 GMT 47.967133 9.623817 8,950 90 106
2020-05-27 14:22:50 GMT 47.967098 9.620995 8,950 90 106
2020-05-27 14:22:46 GMT 47.967148 9.618812 8,950 90 106
2020-05-27 14:22:43 GMT 47.967178 9.616402 8,950 90 106
2020-05-27 14:22:39 GMT 47.967194 9.614023 8,950 88 107
2020-05-27 14:22:36 GMT 47.967148 9.611417 8,925 87 108
2020-05-27 14:22:33 GMT 47.967041 9.608917 8,925 86 108
2020-05-27 14:22:30 GMT 47.966949 9.606651 8,925 85 107
2020-05-27 14:22:26 GMT 47.966766 9.603355 8,950 83 107
2020-05-27 14:22:20 GMT 47.966587 9.599375 8,950 93 107
2020-05-27 14:22:17 GMT 47.966866 9.594093 8,950 95 107
2020-05-27 14:22:13 GMT 47.967178 9.588799 8,900 94 110
2020-05-27 14:22:06 GMT 47.967178 9.588799 8,925 94 108
2020-05-27 14:22:03 GMT 47.967285 9.586628 8,900 92 110
2020-05-27 14:21:59 GMT 47.967381 9.584304 8,900 92 110
2020-05-27 14:21:55 GMT 47.967499 9.580902 8,900 92 110
2020-05-27 14:21:52 GMT 47.967567 9.579022 8,900 96 110
2020-05-27 14:21:48 GMT 47.967728 9.575203 8,900 96 110
2020-05-27 14:21:43 GMT 47.967983 9.571416 8,900 95 110
2020-05-27 14:21:35 GMT 47.968403 9.565641 8,900 97 109
2020-05-27 14:21:32 GMT 47.968590 9.563458 8,900 97 109
2020-05-27 14:21:25 GMT 47.969055 9.558176 8,875 96 110
2020-05-27 14:21:20 GMT 47.969330 9.553848 8,900 94 110
2020-05-27 14:21:15 GMT 47.969421 9.550690 8,900 92 110
2020-05-27 14:21:12 GMT 47.969467 9.548286 8,900 93 110
2020-05-27 14:21:08 GMT 47.969612 9.545851 8,900 101 112
2020-05-27 14:21:05 GMT 47.970016 9.542587 8,900 100 111
2020-05-27 14:20:59 GMT 47.970497 9.538457 8,925 99 111
2020-05-27 14:20:54 GMT 47.970871 9.535076 8,950 97 111
2020-05-27 14:20:51 GMT 47.971104 9.532471 8,950 94 111
2020-05-27 14:20:47 GMT 47.971195 9.529372 8,950 94 110
2020-05-27 14:20:44 GMT 47.971195 9.527048 8,950 91 111
2020-05-27 14:20:41 GMT 47.971336 9.524724 8,950 101 110
2020-05-27 14:20:36 GMT 47.971848 9.521645 8,975 108 109
2020-05-27 14:20:31 GMT 47.972824 9.517400 9,000 108 107
2020-05-27 14:20:26 GMT 47.973618 9.514019 9,000 109 108
2020-05-27 14:20:23 GMT 47.974220 9.511484 8,975 115 109
2020-05-27 14:20:20 GMT 47.974731 9.509903 9,000 116 109
2020-05-27 14:20:17 GMT 47.975555 9.507500 8,975 115 110
2020-05-27 14:20:12 GMT 47.976734 9.503667 8,975 113 110
2020-05-27 14:20:09 GMT 47.977158 9.502350 8,975 114 110
2020-05-27 14:20:01 GMT 47.979218 9.495689 8,950 115 108
2020-05-27 14:19:54 GMT 47.981068 9.489582 8,950 109 103
2020-05-27 14:19:50 GMT 47.981068 9.489582 8,975 111 105
2020-05-27 14:19:46 GMT 47.981903 9.486483 8,975 110 104
2020-05-27 14:19:43 GMT 47.982277 9.484793 8,975 110 104
2020-05-27 14:19:38 GMT 47.983063 9.481750 8,975 104 105
2020-05-27 14:19:35 GMT 47.983532 9.479793 8,950 109 104
2020-05-27 14:19:32 GMT 47.984070 9.477493 8,950 117 106
2020-05-27 14:19:28 GMT 47.984741 9.474722 8,925 109 105
2020-05-27 14:19:25 GMT 47.985260 9.472687 8,925 108 105
2020-05-27 14:19:22 GMT 47.985672 9.470627 8,900 117 106
2020-05-27 14:19:19 GMT 47.986046 9.468595 8,925 105 105
2020-05-27 14:19:16 GMT 47.986542 9.465820 8,900 104 105
2020-05-27 14:19:13 GMT 47.986862 9.464104 8,900 105 106
2020-05-27 14:19:09 GMT 47.987549 9.461357 8,900 120 107
2020-05-27 14:19:05 GMT 47.988556 9.458885 8,900 123 106
2020-05-27 14:19:02 GMT 47.989212 9.457397 8,900 122 107
2020-05-27 14:18:59 GMT 47.990376 9.454862 8,875 122 107
2020-05-27 14:18:56 GMT 47.991119 9.453031 8,875 121 108
2020-05-27 14:18:53 GMT 47.991898 9.451195 8,850 116 107
2020-05-27 14:18:48 GMT 47.993401 9.447397 8,850 119 107
2020-05-27 14:18:45 GMT 47.993912 9.446114 8,850 119 107
2020-05-27 14:18:40 GMT 47.995171 9.442538 8,850 116 107
2020-05-27 14:18:37 GMT 47.996708 9.437819 8,825 114 107
2020-05-27 14:18:33 GMT 47.996708 9.437819 8,825 112 108
2020-05-27 14:18:29 GMT 47.997406 9.435354 8,800 114 107
2020-05-27 14:18:25 GMT 47.998428 9.432819 8,825 145 106
2020-05-27 14:18:19 GMT 48.001038 9.430777 8,850 162 106
2020-05-27 14:18:15 GMT 48.002712 9.430002 8,850 163 106
2020-05-27 14:18:12 GMT 48.004074 9.429428 8,825 164 107
2020-05-27 14:18:09 GMT 48.005905 9.428673 8,800 164 107
2020-05-27 14:18:05 GMT 48.008205 9.427819 8,800 170 108
2020-05-27 14:18:01 GMT 48.009510 9.427396 8,800 168 108
2020-05-27 14:17:54 GMT 48.012863 9.426750 8,775 183 106
2020-05-27 14:17:51 GMT 48.014210 9.426833 8,775 190 107
2020-05-27 14:17:44 GMT 48.017982 9.428453 8,650 184 117
2020-05-27 14:17:41 GMT 48.019100 9.428523 8,675 93 113
2020-05-27 14:17:38 GMT 48.020821 9.425847 8,700 71 108
2020-05-27 14:17:34 GMT 48.020683 9.423523 8,750 58 106
2020-05-27 14:17:30 GMT 48.019409 9.421669 8,800 19 101
2020-05-27 14:17:26 GMT 48.017517 9.421128 8,800 10 101
2020-05-27 14:17:22 GMT 48.015518 9.420570 8,800 20 102
2020-05-27 14:17:18 GMT 48.013653 9.419438 8,800 29 102
2020-05-27 14:17:13 GMT 48.012070 9.418100 8,800 29 103
2020-05-27 14:17:10 GMT 48.010765 9.417044 8,775 35 106
2020-05-27 14:17:06 GMT 48.008530 9.415002 8,775 40 106
2020-05-27 14:17:03 GMT 48.007782 9.413979 8,775 45 107
2020-05-27 14:16:59 GMT 48.006577 9.411973 8,775 57 107
2020-05-27 14:16:53 GMT 48.005356 9.408005 8,800 75 109
2020-05-27 14:16:48 GMT 48.004574 9.403945 8,775 73 112
2020-05-27 14:16:44 GMT 48.003967 9.400987 8,750 69 118
2020-05-27 14:16:41 GMT 48.003387 9.398048 8,725 50 118
2020-05-27 14:16:32 GMT 48.000092 9.395576 8,750 357 107
2020-05-27 14:16:27 GMT 47.998337 9.398945 8,850 303 107
2020-05-27 14:16:23 GMT 47.997345 9.401344 8,850 303 107
2020-05-27 14:16:17 GMT 47.995834 9.404915 8,850 303 109
2020-05-27 14:16:12 GMT 47.994644 9.407730 8,850 301 110
2020-05-27 14:16:04 GMT 47.992264 9.413910 8,825 298 113
2020-05-27 14:16:01 GMT 47.991348 9.416382 8,850 314 109
2020-05-27 14:15:53 GMT 47.988701 9.418875 8,875 339 108
2020-05-27 14:15:50 GMT 47.986954 9.419952 8,875 338 109
2020-05-27 14:15:42 GMT 47.983578 9.422114 8,900 337 108
2020-05-27 14:15:39 GMT 47.981346 9.423523 8,900 338 108
2020-05-27 14:15:32 GMT 47.978760 9.424965 8,900 341 106
2020-05-27 14:15:29 GMT 47.977341 9.425720 8,925 342 106
2020-05-27 14:15:22 GMT 47.973942 9.427467 8,950 341 105
2020-05-27 14:15:19 GMT 47.972626 9.428192 8,950 341 105
2020-05-27 14:15:12 GMT 47.969421 9.429909 8,975 340 104
2020-05-27 14:15:09 GMT 47.967892 9.430777 9,000 340 103
2020-05-27 14:15:01 GMT 47.964661 9.432655 9,000 340 102
2020-05-27 14:14:56 GMT 47.962097 9.433960 9,000 344 103
2020-05-27 14:14:52 GMT 47.960083 9.434990 9,000 326 104
2020-05-27 14:14:48 GMT 47.958767 9.436270 9,000 324 105
2020-05-27 14:14:41 GMT 47.956207 9.439087 9,000 324 105
2020-05-27 14:14:38 GMT 47.954765 9.440636 9,000 323 107
2020-05-27 14:14:31 GMT 47.949966 9.446457 8,975 320 109
2020-05-27 14:14:26 GMT 47.949966 9.446457 8,975 320 109
2020-05-27 14:14:22 GMT 47.948547 9.448242 8,975 320 108
2020-05-27 14:14:16 GMT 47.946579 9.450783 9,000 319 107
2020-05-27 14:14:12 GMT 47.944847 9.453102 9,000 320 105
2020-05-27 14:14:08 GMT 47.943100 9.455246 9,025 320 103
2020-05-27 14:14:01 GMT 47.940811 9.457993 9,025 324 101
2020-05-27 14:13:58 GMT 47.939774 9.459158 9,000 327 102
2020-05-27 14:13:55 GMT 47.938293 9.460602 9,000 325 104
2020-05-27 14:13:51 GMT 47.936516 9.462609 8,975 315 108
2020-05-27 14:13:45 GMT 47.935074 9.465285 8,950 302 111
2020-05-27 14:13:42 GMT 47.934093 9.467539 8,950 301 112
2020-05-27 14:13:39 GMT 47.933258 9.469581 8,950 300 112
2020-05-27 14:13:35 GMT 47.932205 9.472412 8,950 301 113
2020-05-27 14:13:30 GMT 47.930878 9.475639 8,975 302 112
2020-05-27 14:13:27 GMT 47.929253 9.479511 9,000 303 111
2020-05-27 14:13:20 GMT 47.928135 9.482117 9,000 302 110
2020-05-27 14:13:17 GMT 47.927261 9.484222 9,000 301 110
2020-05-27 14:13:14 GMT 47.925529 9.488666 9,000 301 110
2020-05-27 14:13:10 GMT 47.925529 9.488666 9,000 301 110
2020-05-27 14:13:07 GMT 47.924549 9.491061 9,000 301 111
2020-05-27 14:13:04 GMT 47.923233 9.494385 9,000 300 112
2020-05-27 14:13:01 GMT 47.923233 9.494385 9,000 300 112
2020-05-27 14:12:58 GMT 47.922455 9.496445 9,025 300 111
2020-05-27 14:12:55 GMT 47.921356 9.499329 9,025 300 111
2020-05-27 14:12:50 GMT 47.919754 9.503586 9,050 299 110
2020-05-27 14:12:44 GMT 47.918873 9.505991 9,050 302 109
2020-05-27 14:12:41 GMT 47.918106 9.507843 9,050 302 109
2020-05-27 14:12:37 GMT 47.917053 9.510315 9,050 303 108
2020-05-27 14:12:34 GMT 47.916183 9.512306 9,075 302 108
2020-05-27 14:12:31 GMT 47.915176 9.514847 9,100 300 107
2020-05-27 14:12:26 GMT 47.914078 9.517662 9,100 299 106
2020-05-27 14:12:23 GMT 47.913391 9.519722 9,100 297 106
2020-05-27 14:12:20 GMT 47.912960 9.521062 9,075 296 107
2020-05-27 14:12:17 GMT 47.912247 9.523155 9,075 298 108
2020-05-27 14:12:14 GMT 47.911469 9.525639 9,050 297 107
2020-05-27 14:12:10 GMT 47.910690 9.527824 9,050 298 108
2020-05-27 14:12:07 GMT 47.909958 9.529884 9,050 299 109
2020-05-27 14:12:04 GMT 47.909096 9.532330 9,050 298 108
2020-05-27 14:11:59 GMT 47.907978 9.535569 9,075 297 109
2020-05-27 14:11:56 GMT 47.907394 9.537163 9,075 300 114
2020-05-27 14:11:49 GMT 47.905975 9.542189 9,075 293 111
2020-05-27 14:11:45 GMT 47.905289 9.544579 9,075 295 111
2020-05-27 14:11:42 GMT 47.904301 9.547612 9,050 299 113
2020-05-27 14:11:39 GMT 47.903366 9.550072 9,050 291 115
2020-05-27 14:11:36 GMT 47.902859 9.551486 9,050 298 114
2020-05-27 14:11:33 GMT 47.902298 9.553457 9,075 288 115
2020-05-27 14:11:30 GMT 47.901718 9.556595 9,075 282 115
2020-05-27 14:11:26 GMT 47.901443 9.558998 9,100 281 114
2020-05-27 14:11:23 GMT 47.901169 9.561333 9,075 279 115
2020-05-27 14:11:19 GMT 47.900940 9.563805 9,075 278 116
2020-05-27 14:11:16 GMT 47.900623 9.566697 9,100 278 116
2020-05-27 14:11:13 GMT 47.900436 9.568810 9,100 278 116
2020-05-27 14:11:09 GMT 47.900112 9.572754 9,100 278 116
2020-05-27 14:11:05 GMT 47.899879 9.575853 9,100 275 116
2020-05-27 14:11:01 GMT 47.899704 9.578499 9,125 274 117
2020-05-27 14:10:57 GMT 47.899567 9.582344 9,125 272 116
2020-05-27 14:10:54 GMT 47.899506 9.583952 9,125 272 116
2020-05-27 14:10:50 GMT 47.899460 9.587825 9,150 270 116
2020-05-27 14:10:46 GMT 47.899506 9.592825 9,150 270 116
2020-05-27 14:10:40 GMT 47.899506 9.595572 9,175 270 116
2020-05-27 14:10:37 GMT 47.899567 9.597931 9,200 269 117
2020-05-27 14:10:34 GMT 47.899612 9.600334 9,200 269 117
2020-05-27 14:10:29 GMT 47.899704 9.603905 9,200 268 116
2020-05-27 14:10:25 GMT 47.899796 9.606995 9,225 268 115
2020-05-27 14:10:22 GMT 47.899887 9.609467 9,250 267 114
2020-05-27 14:10:19 GMT 47.900017 9.612192 9,250 267 114
2020-05-27 14:10:15 GMT 47.900116 9.615372 9,250 268 114
2020-05-27 14:10:12 GMT 47.900253 9.619835 9,275 267 114
2020-05-27 14:10:09 GMT 47.900253 9.619835 9,275 267 114
2020-05-27 14:10:05 GMT 47.900391 9.623108 9,300 267 114
2020-05-27 14:10:01 GMT 47.900528 9.626839 9,300 267 114
2020-05-27 14:09:57 GMT 47.900620 9.629517 9,300 266 114
2020-05-27 14:09:54 GMT 47.900711 9.631302 9,300 266 113
2020-05-27 14:09:51 GMT 47.900856 9.634165 9,300 266 112
2020-05-27 14:09:48 GMT 47.900948 9.636207 9,300 266 112
2020-05-27 14:09:45 GMT 47.901043 9.638320 9,300 267 111
2020-05-27 14:09:41 GMT 47.901169 9.641739 9,300 267 110
2020-05-27 14:09:38 GMT 47.901260 9.643799 9,300 267 110
2020-05-27 14:09:34 GMT 47.901417 9.646559 9,300 266 110
2020-05-27 14:09:31 GMT 47.901508 9.649306 9,300 270 111
2020-05-27 14:09:28 GMT 47.901535 9.652107 9,300 271 111
2020-05-27 14:09:24 GMT 47.901535 9.654510 9,325 271 111
2020-05-27 14:09:20 GMT 47.901508 9.657405 9,325 271 111
2020-05-27 14:09:15 GMT 47.901463 9.662335 9,350 270 109
2020-05-27 14:09:10 GMT 47.901508 9.664940 9,350 269 108
2020-05-27 14:09:07 GMT 47.901581 9.668449 9,350 268 108
2020-05-27 14:09:04 GMT 47.901581 9.669479 9,350 268 108
2020-05-27 14:09:00 GMT 47.901741 9.672476 9,350 266 106
2020-05-27 14:08:54 GMT 47.901993 9.677101 9,375 263 105
2020-05-27 14:08:50 GMT 47.902267 9.679985 9,375 261 105
2020-05-27 14:08:44 GMT 47.902672 9.684167 9,375 270 102
2020-05-27 14:08:41 GMT 47.902679 9.687195 9,375 265 102
2020-05-27 14:08:34 GMT 47.903458 9.691040 9,350 238 106
2020-05-27 14:08:27 GMT 47.905518 9.694817 9,300 224 109
2020-05-27 14:08:23 GMT 47.907120 9.696808 9,325 221 108
2020-05-27 14:08:19 GMT 47.908817 9.698885 9,325 219 108
2020-05-27 14:08:15 GMT 47.910645 9.700996 9,325 219 108
2020-05-27 14:08:12 GMT 47.911797 9.702336 9,300 222 109
2020-05-27 14:08:09 GMT 47.912636 9.703393 9,300 221 108
2020-05-27 14:08:06 GMT 47.913666 9.704842 9,325 223 108
2020-05-27 14:08:03 GMT 47.914856 9.706421 9,325 221 108
2020-05-27 14:07:57 GMT 47.917419 9.709373 9,325 208 109
2020-05-27 14:07:54 GMT 47.919067 9.710472 9,325 198 110
2020-05-27 14:07:51 GMT 47.920269 9.710999 9,325 195 110
2020-05-27 14:07:47 GMT 47.922318 9.711708 9,325 193 110
2020-05-27 14:07:43 GMT 47.923874 9.712189 9,325 192 110
2020-05-27 14:07:40 GMT 47.925529 9.712689 9,325 192 109
2020-05-27 14:07:37 GMT 47.927067 9.713111 9,325 192 110
2020-05-27 14:07:33 GMT 47.929066 9.713675 9,325 193 109
2020-05-27 14:07:28 GMT 47.933674 9.715294 9,300 194 110
2020-05-27 14:07:25 GMT 47.933674 9.715294 9,300 194 110
2020-05-27 14:07:22 GMT 47.934402 9.715553 9,300 194 110
2020-05-27 14:07:19 GMT 47.936283 9.716210 9,300 194 109
2020-05-27 14:07:16 GMT 47.938934 9.717064 9,300 193 106
2020-05-27 14:07:13 GMT 47.938934 9.717064 9,325 192 103
2020-05-27 14:07:10 GMT 47.940399 9.717545 9,300 191 102
2020-05-27 14:07:07 GMT 47.941914 9.717900 9,300 191 102
2020-05-27 14:07:03 GMT 47.943878 9.718369 9,300 190 102
2020-05-27 14:07:00 GMT 47.945175 9.718745 9,275 190 102
2020-05-27 14:06:56 GMT 47.947174 9.719193 9,250 189 103
2020-05-27 14:06:52 GMT 47.948757 9.719520 9,250 187 103
2020-05-27 14:06:49 GMT 47.950203 9.719731 9,225 185 103
2020-05-27 14:06:46 GMT 47.951797 9.719948 9,225 184 103
2020-05-27 14:06:42 GMT 47.953365 9.720083 9,200 183 103
2020-05-27 14:06:37 GMT 47.956375 9.720222 9,200 182 103
2020-05-27 14:06:32 GMT 47.958710 9.720360 9,150 183 104
2020-05-27 14:06:28 GMT 47.960163 9.720436 9,150 183 105
2020-05-27 14:06:25 GMT 47.961609 9.720506 9,125 183 105
2020-05-27 14:06:21 GMT 47.963562 9.720647 9,100 184 106
2020-05-27 14:06:16 GMT 47.966263 9.720909 9,100 184 107
2020-05-27 14:06:12 GMT 47.968170 9.721069 9,075 183 108
2020-05-27 14:06:06 GMT 47.971298 9.721321 9,050 183 108
2020-05-27 14:06:01 GMT 47.973572 9.721492 9,050 183 108
2020-05-27 14:05:56 GMT 47.976273 9.721703 9,050 185 107
2020-05-27 14:05:51 GMT 47.978367 9.722196 9,025 191 107
2020-05-27 14:05:47 GMT 47.980320 9.722689 9,025 185 108
2020-05-27 14:05:42 GMT 47.983440 9.722337 8,975 168 111
2020-05-27 14:05:38 GMT 47.985210 9.721844 8,975 167 112
2020-05-27 14:05:32 GMT 47.991165 9.719661 8,975 165 110
2020-05-27 14:05:26 GMT 47.991165 9.719661 8,975 164 110
2020-05-27 14:05:22 GMT 47.993076 9.718886 8,950 164 111
2020-05-27 14:05:18 GMT 47.995377 9.717888 8,950 165 110
2020-05-27 14:05:12 GMT 47.998058 9.716914 8,950 166 111
2020-05-27 14:05:07 GMT 48.000294 9.716069 8,925 174 115
2020-05-27 14:05:01 GMT 48.003597 9.715928 8,900 212 114
2020-05-27 14:04:58 GMT 48.005173 9.717133 8,900 259 105
2020-05-27 14:04:55 GMT 48.006088 9.718918 8,950 257 104
2020-05-27 14:04:50 GMT 48.006718 9.722619 8,950 262 105
2020-05-27 14:04:45 GMT 48.007141 9.726059 8,975 260 103
2020-05-27 14:04:40 GMT 48.007507 9.729380 8,975 262 104
2020-05-27 14:04:35 GMT 48.007881 9.732760 8,950 263 104
2020-05-27 14:04:29 GMT 48.008251 9.737267 8,925 262 109
2020-05-27 14:04:24 GMT 48.009323 9.740929 8,900 233 113
2020-05-27 14:04:20 GMT 48.011536 9.741371 8,950 150 105
2020-05-27 14:04:11 GMT 48.013607 9.736140 9,000 102 105
2020-05-27 14:04:06 GMT 48.014027 9.732971 9,000 101 106
2020-05-27 14:04:00 GMT 48.014603 9.728668 8,950 99 106
2020-05-27 14:03:57 GMT 48.014832 9.726471 8,950 98 106
2020-05-27 14:03:50 GMT 48.015282 9.721633 8,950 96 103
2020-05-27 14:03:47 GMT 48.015514 9.719097 8,950 95 103
2020-05-27 14:03:39 GMT 48.015839 9.713463 8,950 94 103
2020-05-27 14:03:36 GMT 48.015980 9.710294 8,925 93 104
2020-05-27 14:03:31 GMT 48.016113 9.706970 8,925 88 104
2020-05-27 14:03:26 GMT 48.015888 9.704026 8,925 65 100
2020-05-27 14:03:19 GMT 48.014511 9.699966 8,900 61 102
2020-05-27 14:03:16 GMT 48.013733 9.697838 8,900 60 102
2020-05-27 14:03:10 GMT 48.012268 9.694130 8,900 49 101
2020-05-27 14:03:07 GMT 48.010441 9.690927 8,900 42 101
2020-05-27 14:03:00 GMT 48.009136 9.689096 8,875 39 103
2020-05-27 14:02:56 GMT 48.007187 9.686852 8,850 37 103
2020-05-27 14:02:50 GMT 48.005585 9.684860 8,850 62 102
2020-05-27 14:02:46 GMT 48.004807 9.681839 8,900 77 104
2020-05-27 14:02:39 GMT 48.004108 9.677054 8,850 75 108
2020-05-27 14:02:36 GMT 48.003597 9.674518 8,825 71 110
2020-05-27 14:02:30 GMT 48.002712 9.665363 8,800 93 108
2020-05-27 14:02:23 GMT 48.002712 9.665363 8,875 130 106
2020-05-27 14:02:18 GMT 48.005859 9.661171 8,875 139 107
2020-05-27 14:02:15 GMT 48.005859 9.661171 8,875 140 107
2020-05-27 14:02:09 GMT 48.009136 9.657475 8,875 108 111
2020-05-27 14:02:03 GMT 48.010208 9.655678 8,825 114 110
2020-05-27 14:02:00 GMT 48.010815 9.653320 8,850 109 110
2020-05-27 14:01:53 GMT 48.011993 9.648468 8,850 108 111
2020-05-27 14:01:49 GMT 48.012489 9.645996 8,850 105 117
2020-05-27 14:01:43 GMT 48.013607 9.641278 8,850 111 111
2020-05-27 14:01:40 GMT 48.014351 9.638461 8,850 111 112
2020-05-27 14:01:33 GMT 48.015472 9.634048 8,875 111 113
2020-05-27 14:01:29 GMT 48.016251 9.631233 8,850 105 117
2020-05-27 14:01:21 GMT 48.017700 9.625432 8,850 107 117
2020-05-27 14:01:17 GMT 48.018353 9.622404 8,850 105 117
2020-05-27 14:01:11 GMT 48.019318 9.617432 8,850 114 117
2020-05-27 14:01:08 GMT 48.019958 9.615509 8,875 130 114
2020-05-27 14:01:05 GMT 48.021103 9.613530 8,900 165 113
2020-05-27 14:00:59 GMT 48.024498 9.612122 8,925 168 115
2020-05-27 14:00:52 GMT 48.027943 9.611065 8,850 168 124
2020-05-27 14:00:48 GMT 48.030350 9.610428 8,800 194 124
2020-05-27 14:00:41 GMT 48.032776 9.613655 8,950 265 113
2020-05-27 14:00:38 GMT 48.032959 9.616402 8,950 266 113
2020-05-27 14:00:34 GMT 48.033066 9.619798 8,950 264 115
2020-05-27 14:00:27 GMT 48.033371 9.624779 8,925 264 117
2020-05-27 14:00:22 GMT 48.033783 9.629311 8,950 263 119
2020-05-27 14:00:17 GMT 48.034149 9.633224 8,950 263 117
2020-05-27 14:00:11 GMT 48.034554 9.637686 9,000 263 115
2020-05-27 14:00:07 GMT 48.034832 9.640855 9,000 264 114
2020-05-27 14:00:04 GMT 48.035065 9.643954 9,000 264 113
2020-05-27 14:00:01 GMT 48.035156 9.645515 9,000 264 113
2020-05-27 13:59:57 GMT 48.035431 9.648880 9,000 266 113
2020-05-27 13:59:50 GMT 48.035248 9.654991 9,000 284 110
2020-05-27 13:59:47 GMT 48.034973 9.656419 9,050 202 109
2020-05-27 13:59:37 GMT 48.038040 9.661789 9,100 202 109
2020-05-27 13:59:34 GMT 48.039349 9.662546 9,100 200 109
2020-05-27 13:59:31 GMT 48.040607 9.663180 9,100 195 107
2020-05-27 13:59:26 GMT 48.043076 9.663643 9,125 168 106
2020-05-27 13:59:21 GMT 48.045593 9.662407 9,100 156 108
2020-05-27 13:59:16 GMT 48.047775 9.660574 9,075 132 108
2020-05-27 13:59:11 GMT 48.049026 9.657326 9,050 88 108
2020-05-27 13:59:06 GMT 48.048981 9.654099 9,050 87 107
2020-05-27 13:59:01 GMT 48.048847 9.650010 9,025 342 110
2020-05-27 13:58:57 GMT 48.048615 9.646700 9,025 86 108
2020-05-27 13:58:53 GMT 48.048569 9.644691 9,025 97 110
2020-05-27 13:58:50 GMT 48.048706 9.642123 9,025 98 110
2020-05-27 13:58:47 GMT 48.049080 9.638742 9,025 94 110
2020-05-27 13:58:41 GMT 48.048939 9.634869 9,000 77 109
2020-05-27 13:58:37 GMT 48.048523 9.632126 9,025 76 109
2020-05-27 13:58:34 GMT 48.048100 9.629305 9,000 78 109
2020-05-27 13:58:31 GMT 48.047882 9.627525 9,050 83 110
2020-05-27 13:58:25 GMT 48.047588 9.623319 9,000 86 113
2020-05-27 13:58:21 GMT 48.047215 9.619657 9,025 53 108
2020-05-27 13:58:15 GMT 48.045502 9.616470 9,025 36 108
2020-05-27 13:58:09 GMT 48.042801 9.614273 9,000 342 110
2020-05-27 13:58:05 GMT 48.040833 9.613243 9,000 14 110
2020-05-27 13:58:00 GMT 48.038727 9.612419 9,050 342 110
2020-05-27 13:57:57 GMT 48.036896 9.611801 9,025 11 113
2020-05-27 13:57:53 GMT 48.034786 9.611347 9,025 329 109
2020-05-27 13:57:49 GMT 48.033157 9.613108 9,100 289 108
2020-05-27 13:57:46 GMT 48.032867 9.614822 9,150 273 110
2020-05-27 13:57:43 GMT 48.032822 9.617500 9,150 272 111
2020-05-27 13:57:39 GMT 48.032784 9.620080 9,150 272 111
2020-05-27 13:57:36 GMT 48.032738 9.623742 9,150 270 111
2020-05-27 13:57:33 GMT 48.032776 9.625259 9,150 269 111
2020-05-27 13:57:30 GMT 48.032784 9.627404 9,150 268 112
2020-05-27 13:57:25 GMT 48.032879 9.631277 9,100 267 114
2020-05-27 13:57:20 GMT 48.033112 9.635432 9,100 264 116
2020-05-27 13:57:14 GMT 48.033417 9.639816 9,125 263 117
2020-05-27 13:57:10 GMT 48.033810 9.643602 9,100 268 118
2020-05-27 13:57:06 GMT 48.033901 9.646771 9,125 274 118
2020-05-27 13:57:02 GMT 48.033829 9.649841 9,225 263 114
2020-05-27 13:56:59 GMT 48.033714 9.651841 9,125 273 117
2020-05-27 13:56:55 GMT 48.033623 9.655715 9,150 272 115
2020-05-27 13:56:50 GMT 48.033531 9.660222 9,175 272 114
2020-05-27 13:56:45 GMT 48.033482 9.662969 9,200 271 113
2020-05-27 13:56:42 GMT 48.033482 9.665715 9,200 270 113
2020-05-27 13:56:38 GMT 48.033482 9.668462 9,225 263 114
2020-05-27 13:56:35 GMT 48.033482 9.671631 9,225 269 113
2020-05-27 13:56:32 GMT 48.033531 9.673603 9,225 263 114
2020-05-27 13:56:29 GMT 48.033577 9.675997 9,225 263 114
2020-05-27 13:56:26 GMT 48.033714 9.678392 9,225 265 113
2020-05-27 13:56:19 GMT 48.034103 9.683418 9,225 262 115
2020-05-27 13:56:16 GMT 48.034367 9.685998 9,225 262 115
2020-05-27 13:56:06 GMT 48.035347 9.693885 9,225 258 115
2020-05-27 13:55:58 GMT 48.037209 9.703604 9,200 244 118
2020-05-27 13:55:53 GMT 48.037209 9.703604 9,225 226 115
2020-05-27 13:55:49 GMT 48.039024 9.705646 9,325 173 113
2020-05-27 13:55:45 GMT 48.041119 9.705717 9,350 165 114
2020-05-27 13:55:38 GMT 48.044724 9.703125 9,350 128 109
2020-05-27 13:55:34 GMT 48.045818 9.700857 9,350 91 105
2020-05-27 13:55:25 GMT 48.047836 9.694817 9,350 117 110
2020-05-27 13:55:14 GMT 48.050262 9.687950 9,325 110 107
2020-05-27 13:55:11 GMT 48.050846 9.685293 9,350 91 105
2020-05-27 13:55:07 GMT 48.050941 9.682758 9,325 91 105
2020-05-27 13:55:04 GMT 48.051033 9.678321 9,300 92 104
2020-05-27 13:54:58 GMT 48.051079 9.676068 9,300 92 104
2020-05-27 13:54:54 GMT 48.051174 9.673321 9,300 92 103
2020-05-27 13:54:51 GMT 48.051266 9.671067 9,275 93 103
2020-05-27 13:54:43 GMT 48.051498 9.665152 9,250 93 102
2020-05-27 13:54:40 GMT 48.051544 9.662898 9,250 93 103
2020-05-27 13:54:33 GMT 48.051826 9.656419 9,250 93 103
2020-05-27 13:54:23 GMT 48.051964 9.650996 9,250 91 103
2020-05-27 13:54:20 GMT 48.052010 9.649165 9,225 91 104
2020-05-27 13:54:12 GMT 48.052105 9.642897 9,200 90 104
2020-05-27 13:54:08 GMT 48.052105 9.640010 9,200 82 103
2020-05-27 13:54:04 GMT 48.051872 9.637545 9,175 78 104
2020-05-27 13:54:01 GMT 48.051407 9.634446 9,175 77 102
2020-05-27 13:53:55 GMT 48.050987 9.630784 9,175 91 100
2020-05-27 13:53:52 GMT 48.051041 9.629379 9,200 89 100
2020-05-27 13:53:48 GMT 48.050949 9.626701 9,175 80 98
2020-05-27 13:53:44 GMT 48.050354 9.623474 9,175 74 98
2020-05-27 13:53:41 GMT 48.049988 9.622169 9,150 65 100
2020-05-27 13:53:38 GMT 48.049393 9.620247 9,125 80 100
2020-05-27 13:53:33 GMT 48.048431 9.617020 9,100 66 102
2020-05-27 13:53:30 GMT 48.047836 9.614822 9,100 67 103
2020-05-27 13:53:22 GMT 48.046333 9.609516 9,050 66 101
2020-05-27 13:53:19 GMT 48.045818 9.607826 9,075 65 100
2020-05-27 13:53:16 GMT 48.044144 9.602685 9,025 335 106
2020-05-27 13:53:12 GMT 48.044144 9.602685 9,025 71 99
2020-05-27 13:53:03 GMT 48.043724 9.597262 9,000 90 101
2020-05-27 13:52:55 GMT 48.043716 9.591957 8,950 89 102
2020-05-27 13:52:51 GMT 48.043400 9.584585 8,850 28 112
2020-05-27 13:52:45 GMT 48.043400 9.584585 8,900 66 109
2020-05-27 13:52:41 GMT 48.042191 9.582191 8,975 287 106
2020-05-27 13:52:36 GMT 48.039734 9.581589 8,950 324 105
2020-05-27 13:52:33 GMT 48.038544 9.582825 8,975 303 104
2020-05-27 13:52:30 GMT 48.037811 9.585360 8,975 287 106
2020-05-27 13:52:26 GMT 48.037441 9.587191 8,975 286 107
2020-05-27 13:52:22 GMT 48.036896 9.590240 8,950 284 109
2020-05-27 13:52:19 GMT 48.036575 9.592163 8,950 284 110
2020-05-27 13:52:15 GMT 48.035995 9.595924 8,950 281 112
2020-05-27 13:52:10 GMT 48.035625 9.599093 8,900 323 104
2020-05-27 13:52:06 GMT 48.035248 9.602737 8,925 299 111
2020-05-27 13:52:02 GMT 48.033920 9.605759 9,000 332 102
2020-05-27 13:51:58 GMT 48.032085 9.606769 9,025 356 100
2020-05-27 13:51:55 GMT 48.030762 9.606857 9,025 0 100
2020-05-27 13:51:52 GMT 48.030087 9.606840 9,025 1 100
2020-05-27 13:51:49 GMT 48.028519 9.606720 9,025 4 99
2020-05-27 13:51:42 GMT 48.025314 9.606377 9,025 4 99
2020-05-27 13:51:39 GMT 48.023754 9.606206 9,025 4 98
2020-05-27 13:51:32 GMT 48.020588 9.605924 9,025 2 99
2020-05-27 13:51:28 GMT 48.018860 9.605827 9,000 1 99
2020-05-27 13:51:25 GMT 48.017029 9.605827 9,000 3 101
2020-05-27 13:51:21 GMT 48.015888 9.605713 8,975 3 101
2020-05-27 13:51:18 GMT 48.014488 9.605572 8,975 2 102
2020-05-27 13:51:15 GMT 48.012814 9.605502 8,950 356 103
2020-05-27 13:51:09 GMT 48.009880 9.606135 8,950 345 102
2020-05-27 13:51:04 GMT 48.007736 9.607475 8,975 321 100
2020-05-27 13:51:01 GMT 48.006958 9.608505 8,950 313 101
2020-05-27 13:50:55 GMT 48.004898 9.611870 8,950 305 100
2020-05-27 13:50:51 GMT 48.003479 9.616196 8,900 289 111
2020-05-27 13:50:48 GMT 48.003479 9.616196 8,900 289 111
2020-05-27 13:50:45 GMT 48.003132 9.618530 8,900 289 105
2020-05-27 13:50:41 GMT 48.002666 9.620995 8,900 290 105
2020-05-27 13:50:35 GMT 48.001602 9.625397 8,875 289 111
2020-05-27 13:50:31 GMT 48.001007 9.627869 8,850 289 111
2020-05-27 13:50:28 GMT 48.000523 9.629939 8,850 56 113
2020-05-27 13:50:25 GMT 47.999954 9.632812 8,800 296 113
2020-05-27 13:50:20 GMT 47.999130 9.635628 8,800 320 111
2020-05-27 13:50:14 GMT 47.995697 9.637688 8,850 16 110
2020-05-27 13:50:11 GMT 47.993450 9.635855 8,850 41 111
2020-05-27 13:50:08 GMT 47.993450 9.635855 8,950 73 115
2020-05-27 13:50:04 GMT 47.992470 9.632756 8,900 140 112
2020-05-27 13:50:01 GMT 47.992813 9.630478 8,900 140 112
2020-05-27 13:49:57 GMT 47.994331 9.628812 8,950 164 114
2020-05-27 13:49:54 GMT 47.996243 9.628249 8,925 39 100
2020-05-27 13:49:50 GMT 47.997593 9.626629 8,925 105 111
2020-05-27 13:49:44 GMT 47.997070 9.622169 8,875 47 113
2020-05-27 13:49:40 GMT 47.995560 9.621208 8,975 29 102
2020-05-27 13:49:37 GMT 47.993774 9.619560 8,975 34 103
2020-05-27 13:49:31 GMT 47.991634 9.617333 8,975 34 103
2020-05-27 13:49:26 GMT 47.990067 9.615715 8,975 34 103
2020-05-27 13:49:20 GMT 47.987629 9.613178 8,975 33 101
2020-05-27 13:49:14 GMT 47.985077 9.610840 8,950 30 103
2020-05-27 13:49:11 GMT 47.984093 9.609938 8,900 47 113
2020-05-27 13:49:08 GMT 47.982559 9.608574 8,925 32 107
2020-05-27 13:49:03 GMT 47.979996 9.606135 8,900 32 110
2020-05-27 13:49:00 GMT 47.979172 9.605415 8,900 34 111
2020-05-27 13:48:57 GMT 47.977890 9.603973 8,875 76 113
2020-05-27 13:48:50 GMT 47.976318 9.599304 8,900 92 112
2020-05-27 13:48:47 GMT 47.976517 9.597107 8,950 108 112
2020-05-27 13:48:41 GMT 47.977482 9.592684 8,950 107 113
2020-05-27 13:48:37 GMT 47.978458 9.589515 8,950 155 106
2020-05-27 13:48:32 GMT 47.980591 9.587700 9,000 157 106
2020-05-27 13:48:29 GMT 47.981529 9.587191 9,000 157 107
2020-05-27 13:48:23 GMT 47.984390 9.585228 9,000 130 103
2020-05-27 13:48:19 GMT 47.985580 9.583247 9,000 120 98
2020-05-27 13:48:13 GMT 47.986698 9.578810 9,000 106 100
2020-05-27 13:48:10 GMT 47.987164 9.576557 9,000 108 100
2020-05-27 13:48:06 GMT 47.987862 9.573669 8,975 118 99
2020-05-27 13:48:03 GMT 47.988235 9.572525 9,000 120 99
2020-05-27 13:47:59 GMT 47.989105 9.570396 9,000 115 97
2020-05-27 13:47:55 GMT 47.989819 9.567472 8,950 97 97
2020-05-27 13:47:52 GMT 47.990097 9.563599 8,925 96 100
2020-05-27 13:47:46 GMT 47.990284 9.561486 8,900 96 103
2020-05-27 13:47:40 GMT 47.990616 9.556938 8,875 94 105
2020-05-27 13:47:36 GMT 47.990707 9.553711 8,850 73 105
2020-05-27 13:47:31 GMT 47.989353 9.551345 8,850 23 103
2020-05-27 13:47:24 GMT 47.986652 9.549161 8,850 50 104
2020-05-27 13:47:21 GMT 47.985626 9.547325 8,850 51 106
2020-05-27 13:47:18 GMT 47.984848 9.545815 8,825 51 106
2020-05-27 13:47:15 GMT 47.983795 9.543617 8,850 132 112
2020-05-27 13:47:11 GMT 47.983395 9.540640 8,850 96 109
2020-05-27 13:47:06 GMT 47.983704 9.537094 8,850 96 109
2020-05-27 13:47:02 GMT 47.984116 9.532906 8,850 104 109
2020-05-27 13:46:58 GMT 47.984665 9.531326 8,850 131 111
2020-05-27 13:46:54 GMT 47.986450 9.528374 8,850 131 114
2020-05-27 13:46:49 GMT 47.990204 9.524323 8,850 162 117
2020-05-27 13:46:44 GMT 47.990204 9.524323 8,825 133 118
2020-05-27 13:46:40 GMT 47.992424 9.523527 8,775 169 122
2020-05-27 13:46:35 GMT 47.995560 9.523499 8,750 207 122
2020-05-27 13:46:31 GMT 47.996887 9.525009 8,800 231 120
2020-05-27 13:46:28 GMT 47.998260 9.528030 8,800 236 117
2020-05-27 13:46:24 GMT 47.999359 9.530076 8,800 211 118
2020-05-27 13:46:20 GMT 48.001556 9.530914 8,825 151 117
2020-05-27 13:46:17 GMT 48.002991 9.529795 8,825 132 118
2020-05-27 13:46:14 GMT 48.004028 9.528099 8,825 132 118
2020-05-27 13:46:10 GMT 48.005459 9.525851 8,850 134 119
2020-05-27 13:46:07 GMT 48.006592 9.524185 8,850 133 119
2020-05-27 13:46:04 GMT 48.007919 9.522125 8,850 155 126
2020-05-27 13:45:57 GMT 48.010254 9.518417 8,875 133 120
2020-05-27 13:45:54 GMT 48.011745 9.516132 8,875 135 120
2020-05-27 13:45:49 GMT 48.013420 9.513597 8,900 135 121
2020-05-27 13:45:42 GMT 48.016865 9.508667 8,900 135 123
2020-05-27 13:45:37 GMT 48.018307 9.506554 8,900 134 122
2020-05-27 13:45:34 GMT 48.019657 9.504441 9,000 132 118
2020-05-27 13:45:29 GMT 48.021706 9.501202 8,950 131 120
2020-05-27 13:45:24 GMT 48.023289 9.498455 8,975 131 119
2020-05-27 13:45:16 GMT 48.026184 9.493767 9,000 134 120
2020-05-27 13:45:13 GMT 48.027527 9.491624 9,000 135 118
2020-05-27 13:45:06 GMT 48.030029 9.487862 9,000 132 121
2020-05-27 13:45:02 GMT 48.031769 9.485115 9,000 130 122
2020-05-27 13:44:59 GMT 48.035812 9.479863 8,975 147 127
2020-05-27 13:44:52 GMT 48.035812 9.479863 9,000 184 124
2020-05-27 13:44:49 GMT 48.037811 9.480145 9,025 209 123
2020-05-27 13:44:45 GMT 48.039814 9.482258 9,100 226 122
2020-05-27 13:44:42 GMT 48.040699 9.483666 9,075 225 123
2020-05-27 13:44:38 GMT 48.042469 9.486272 9,050 224 125
2020-05-27 13:44:34 GMT 48.045959 9.490356 9,025 196 126
2020-05-27 13:44:31 GMT 48.045959 9.490356 9,050 188 124
2020-05-27 13:44:22 GMT 48.050262 9.488617 9,200 112 111
2020-05-27 13:44:19 GMT 48.051315 9.485664 9,175 105 111
2020-05-27 13:44:13 GMT 48.051826 9.482117 9,200 93 108
2020-05-27 13:44:08 GMT 48.051773 9.477974 9,175 86 109
2020-05-27 13:44:04 GMT 48.051636 9.474747 9,200 85 107
2020-05-27 13:43:58 GMT 48.051407 9.469018 9,200 95 108
2020-05-27 13:43:52 GMT 48.051594 9.466412 9,200 86 108
2020-05-27 13:43:49 GMT 48.051590 9.464516 9,175 78 108
2020-05-27 13:43:43 GMT 48.050755 9.459933 9,175 70 108
2020-05-27 13:43:40 GMT 48.049759 9.455795 9,175 69 108
2020-05-27 13:43:32 GMT 48.048473 9.451763 9,175 53 108
2020-05-27 13:43:28 GMT 48.047333 9.449547 9,175 45 109
2020-05-27 13:43:23 GMT 48.045586 9.447115 9,175 35 110
2020-05-27 13:43:19 GMT 48.044174 9.445839 9,150 18 110
2020-05-27 13:43:16 GMT 48.042160 9.445496 9,175 352 110
2020-05-27 13:43:13 GMT 48.040787 9.446526 9,200 314 112
2020-05-27 13:43:10 GMT 48.039722 9.448101 9,225 292 114
2020-05-27 13:43:05 GMT 48.038727 9.451744 9,225 269 119
2020-05-27 13:43:00 GMT 48.038792 9.455919 9,225 268 119
2020-05-27 13:42:56 GMT 48.038910 9.459297 9,250 268 117
2020-05-27 13:42:50 GMT 48.039001 9.463966 9,250 271 117
2020-05-27 13:42:47 GMT 48.039001 9.466507 9,250 272 117
2020-05-27 13:42:44 GMT 48.038956 9.468567 9,250 272 116
2020-05-27 13:42:41 GMT 48.038883 9.471130 9,275 270 116
2020-05-27 13:42:38 GMT 48.038910 9.473442 9,300 270 116
2020-05-27 13:42:35 GMT 48.038910 9.475639 9,300 269 116
2020-05-27 13:42:29 GMT 48.038883 9.480708 9,275 276 117
2020-05-27 13:42:25 GMT 48.038589 9.484016 9,300 282 115
2020-05-27 13:42:22 GMT 48.038277 9.486272 9,300 282 114
2020-05-27 13:42:19 GMT 48.037952 9.488666 9,300 282 114
2020-05-27 13:42:15 GMT 48.037579 9.491695 9,300 277 115
2020-05-27 13:42:12 GMT 48.037441 9.494159 9,300 268 117
2020-05-27 13:42:09 GMT 48.037582 9.496582 9,275 259 120
2020-05-27 13:42:05 GMT 48.038040 9.499397 9,250 261 121
2020-05-27 13:42:01 GMT 48.038040 9.503105 9,250 279 118
2020-05-27 13:41:58 GMT 48.037674 9.504864 9,300 294 116
2020-05-27 13:41:55 GMT 48.036743 9.507751 9,300 297 113
2020-05-27 13:41:52 GMT 48.036072 9.509697 9,350 300 111
2020-05-27 13:41:48 GMT 48.035019 9.512306 9,325 309 109
2020-05-27 13:41:45 GMT 48.034229 9.513808 9,325 310 109
2020-05-27 13:41:41 GMT 48.033157 9.516202 9,350 221 99
2020-05-27 13:41:38 GMT 48.033051 9.518692 9,350 221 99
2020-05-27 13:41:33 GMT 48.034416 9.522048 9,400 237 104
2020-05-27 13:41:28 GMT 48.035812 9.525217 9,450 237 105
2020-05-27 13:41:24 GMT 48.036896 9.527618 9,475 231 100
2020-05-27 13:41:21 GMT 48.038979 9.530076 9,450 107 94
2020-05-27 13:41:18 GMT 48.038979 9.530076 9,475 215 99
2020-05-27 13:41:14 GMT 48.040649 9.531670 9,450 212 103
2020-05-27 13:41:08 GMT 48.043213 9.533738 9,400 189 104
2020-05-27 13:41:04 GMT 48.045273 9.534004 9,425 162 101
2020-05-27 13:41:01 GMT 48.046471 9.533457 9,400 146 100
2020-05-27 13:40:57 GMT 48.047729 9.532259 9,400 134 98
2020-05-27 13:40:54 GMT 48.048847 9.530288 9,375 106 96
2020-05-27 13:40:48 GMT 48.049591 9.526625 9,375 105 96
2020-05-27 13:40:43 GMT 48.050125 9.523636 9,350 103 96
2020-05-27 13:40:38 GMT 48.050720 9.519997 9,325 103 95
2020-05-27 13:40:33 GMT 48.051178 9.517387 9,325 109 94
2020-05-27 13:40:27 GMT 48.051918 9.513456 9,300 97 91
2020-05-27 13:40:22 GMT 48.052242 9.510146 9,250 96 92
2020-05-27 13:40:17 GMT 48.052460 9.507225 9,175 94 93
2020-05-27 13:40:13 GMT 48.052662 9.504371 9,100 98 92
2020-05-27 13:40:08 GMT 48.052990 9.500920 9,175 98 93
2020-05-27 13:40:03 GMT 48.053268 9.498174 9,175 99 93
2020-05-27 13:39:59 GMT 48.053501 9.495920 9,175 97 92
2020-05-27 13:39:56 GMT 48.053688 9.494019 9,175 92 93
2020-05-27 13:39:53 GMT 48.053688 9.491413 9,125 88 95
2020-05-27 13:39:47 GMT 48.053558 9.487793 9,125 86 96
2020-05-27 13:39:43 GMT 48.053455 9.485286 9,125 85 95
2020-05-27 13:39:40 GMT 48.053284 9.482574 9,100 84 96
2020-05-27 13:39:37 GMT 48.053223 9.481272 9,100 84 97
2020-05-27 13:39:32 GMT 48.053009 9.478249 9,100 84 97
2020-05-27 13:39:29 GMT 48.052895 9.475708 9,100 84 97
2020-05-27 13:39:23 GMT 48.052570 9.471623 9,075 83 97
2020-05-27 13:39:19 GMT 48.052383 9.468877 9,050 83 96
2020-05-27 13:39:15 GMT 48.052231 9.466782 9,050 83 96
2020-05-27 13:39:12 GMT 48.052002 9.464722 9,050 82 96
2020-05-27 13:39:09 GMT 48.051590 9.459709 9,000 81 98
2020-05-27 13:39:00 GMT 48.051220 9.456200 8,975 81 98
2020-05-27 13:38:56 GMT 48.051041 9.454010 8,975 81 98
2020-05-27 13:38:50 GMT 48.050613 9.449439 8,950 84 99
2020-05-27 13:38:47 GMT 48.050522 9.447327 8,950 86 103
2020-05-27 13:38:42 GMT 48.049496 9.441693 8,925 62 102
2020-05-27 13:38:39 GMT 48.049496 9.441693 8,950 34 99
2020-05-27 13:38:36 GMT 48.048660 9.440848 8,925 18 100
2020-05-27 13:38:32 GMT 48.047058 9.440071 8,925 15 101
2020-05-27 13:38:29 GMT 48.045822 9.439522 8,900 14 103
2020-05-27 13:38:26 GMT 48.044266 9.438904 8,900 7 103
2020-05-27 13:38:23 GMT 48.042839 9.438664 8,900 348 105
2020-05-27 13:38:19 GMT 48.040878 9.439384 8,875 339 107
2020-05-27 13:38:16 GMT 48.039536 9.440073 8,875 339 107
2020-05-27 13:38:13 GMT 48.038231 9.441904 8,875 289 114
2020-05-27 13:38:09 GMT 48.037628 9.447397 8,900 271 117
2020-05-27 13:38:06 GMT 48.037628 9.447397 8,900 271 117
2020-05-27 13:38:01 GMT 48.037628 9.451195 8,925 268 116
2020-05-27 13:37:58 GMT 48.037674 9.453735 8,950 268 116
2020-05-27 13:37:55 GMT 48.037720 9.455727 8,950 268 116
2020-05-27 13:37:51 GMT 48.037811 9.458885 9,150 44 103
2020-05-27 13:37:46 GMT 48.037766 9.463665 8,950 272 117
2020-05-27 13:37:38 GMT 48.037994 9.470284 8,975 259 121
2020-05-27 13:37:31 GMT 48.038605 9.475497 8,950 278 118
2020-05-27 13:37:26 GMT 48.037907 9.480004 8,975 285 120
2020-05-27 13:37:22 GMT 48.037395 9.482891 8,975 287 121
2020-05-27 13:37:15 GMT 48.035706 9.487450 8,975 315 117
2020-05-27 13:37:12 GMT 48.033951 9.488314 9,050 5 106
2020-05-27 13:37:05 GMT 48.031128 9.485733 9,150 42 103
2020-05-27 13:36:59 GMT 48.029068 9.483192 9,150 36 103
2020-05-27 13:36:55 GMT 48.027557 9.481544 9,150 39 101
2020-05-27 13:36:51 GMT 48.025944 9.479370 9,150 54 100
2020-05-27 13:36:48 GMT 48.025269 9.477562 9,175 71 100
2020-05-27 13:36:44 GMT 48.024811 9.475296 9,175 74 100
2020-05-27 13:36:40 GMT 48.024361 9.472750 9,175 73 100
2020-05-27 13:36:37 GMT 48.023849 9.470352 9,150 72 100
2020-05-27 13:36:34 GMT 48.023521 9.468736 9,150 72 99
2020-05-27 13:36:29 GMT 48.022888 9.465683 9,150 78 99
2020-05-27 13:36:26 GMT 48.022449 9.463524 9,150 75 98
2020-05-27 13:36:22 GMT 48.022171 9.459651 9,150 96 100
2020-05-27 13:36:19 GMT 48.022293 9.458611 9,150 97 100
2020-05-27 13:36:14 GMT 48.022636 9.455144 9,125 97 100
2020-05-27 13:36:10 GMT 48.022823 9.452327 9,125 95 100
2020-05-27 13:36:05 GMT 48.023026 9.448586 9,125 88 100
2020-05-27 13:35:59 GMT 48.022869 9.445073 9,100 93 101
2020-05-27 13:35:53 GMT 48.024174 9.438453 9,075 112 104
2020-05-27 13:35:50 GMT 48.024174 9.438453 9,075 111 103
2020-05-27 13:35:44 GMT 48.025223 9.434578 9,075 110 102
2020-05-27 13:35:39 GMT 48.026001 9.431419 9,075 110 101
2020-05-27 13:35:36 GMT 48.026546 9.429227 9,075 110 101
2020-05-27 13:35:33 GMT 48.026920 9.427748 9,075 110 101
2020-05-27 13:35:29 GMT 48.027649 9.424759 9,075 106 100
2020-05-27 13:35:26 GMT 48.028038 9.422819 9,075 103 99
2020-05-27 13:35:23 GMT 48.028427 9.420570 9,025 102 99
2020-05-27 13:35:18 GMT 48.029015 9.416903 9,050 99 98
2020-05-27 13:35:14 GMT 48.029202 9.414931 9,025 90 97
2020-05-27 13:35:09 GMT 48.029160 9.411781 9,000 59 98
2020-05-27 13:35:03 GMT 48.027969 9.407799 8,975 59 96
2020-05-27 13:34:59 GMT 48.027100 9.405602 8,950 59 98
2020-05-27 13:34:55 GMT 48.025543 9.401688 8,950 59 97
2020-05-27 13:34:43 GMT 48.023380 9.396198 8,950 59 99
2020-05-27 13:34:33 GMT 48.020866 9.390001 8,950 45 98
2020-05-27 13:34:23 GMT 48.017395 9.386719 8,925 27 98
2020-05-27 13:34:18 GMT 48.015373 9.385141 8,900 27 99
2020-05-27 13:34:13 GMT 48.013142 9.383240 8,900 32 105
2020-05-27 13:34:10 GMT 48.012115 9.382254 8,875 32 105
2020-05-27 13:34:07 GMT 48.010815 9.381057 8,900 16 104
2020-05-27 13:34:03 GMT 48.008717 9.380564 8,875 2 105
2020-05-27 13:33:59 GMT 48.006809 9.380423 8,875 1 105
2020-05-27 13:33:53 GMT 48.003891 9.380196 8,875 4 106
2020-05-27 13:33:48 GMT 48.000870 9.379852 8,900 351 105
2020-05-27 13:33:42 GMT 47.999039 9.380402 8,900 321 107
2020-05-27 13:33:39 GMT 47.997498 9.381972 8,900 321 110
2020-05-27 13:33:33 GMT 47.995422 9.384590 8,875 321 110
2020-05-27 13:33:30 GMT 47.994099 9.386198 8,875 321 110
2020-05-27 13:33:27 GMT 47.992813 9.387817 8,950 39 101
2020-05-27 13:33:21 GMT 47.990524 9.390564 8,875 325 109
2020-05-27 13:33:13 GMT 47.986633 9.391800 8,975 33 100
2020-05-27 13:33:08 GMT 47.985069 9.390212 8,950 40 102
2020-05-27 13:33:03 GMT 47.983021 9.387677 8,950 39 102
2020-05-27 13:33:00 GMT 47.981857 9.386268 8,950 39 103
2020-05-27 13:32:53 GMT 47.978989 9.382805 8,925 38 104
2020-05-27 13:32:50 GMT 47.978226 9.381902 8,925 38 105
2020-05-27 13:32:42 GMT 47.973770 9.375870 8,875 168 110
2020-05-27 13:32:31 GMT 47.974827 9.370845 8,975 120 109
2020-05-27 13:32:21 GMT 47.977341 9.364265 8,925 118 113
2020-05-27 13:32:14 GMT 47.979065 9.359929 8,925 141 113
2020-05-27 13:32:11 GMT 47.980320 9.358450 8,950 152 112
2020-05-27 13:32:08 GMT 47.981735 9.357605 8,975 166 112
2020-05-27 13:32:05 GMT 47.983475 9.357056 8,975 168 111
2020-05-27 13:32:01 GMT 47.985394 9.356478 8,975 166 110
2020-05-27 13:31:56 GMT 47.988327 9.355408 8,975 166 112
2020-05-27 13:31:52 GMT 47.990284 9.354718 8,975 164 113
2020-05-27 13:31:49 GMT 47.991585 9.354154 8,975 163 113
2020-05-27 13:31:45 GMT 47.993587 9.353168 8,975 169 114
2020-05-27 13:31:40 GMT 47.996334 9.352746 8,975 175 114
2020-05-27 13:31:35 GMT 47.998943 9.352464 9,000 175 114
2020-05-27 13:31:29 GMT 48.002060 9.352180 8,975 176 114
2020-05-27 13:31:25 GMT 48.004295 9.351971 9,000 177 114
2020-05-27 13:31:22 GMT 48.007187 9.351837 9,000 177 114
2020-05-27 13:31:14 GMT 48.009750 9.351700 9,000 177 115
2020-05-27 13:31:11 GMT 48.011791 9.351478 9,000 175 115
2020-05-27 13:31:07 GMT 48.013962 9.351219 8,975 171 115
2020-05-27 13:31:04 GMT 48.015469 9.350915 8,975 171 115
2020-05-27 13:31:01 GMT 48.016956 9.350562 8,975 171 117
2020-05-27 13:30:58 GMT 48.018494 9.350140 8,950 172 118
2020-05-27 13:30:49 GMT 48.023254 9.351562 8,975 222 112
2020-05-27 13:30:40 GMT 48.026779 9.356196 9,000 221 111
2020-05-27 13:30:31 GMT 48.030739 9.361338 8,975 222 113
2020-05-27 13:30:28 GMT 48.031677 9.362617 8,975 222 112
2020-05-27 13:30:18 GMT 48.035252 9.367112 8,975 220 112
2020-05-27 13:30:08 GMT 48.039677 9.372183 8,975 216 115
2020-05-27 13:29:58 GMT 48.044052 9.376972 9,000 219 115
2020-05-27 13:29:55 GMT 48.045181 9.378342 9,000 217 115
2020-05-27 13:29:49 GMT 48.048065 9.381020 8,975 202 118
2020-05-27 13:29:45 GMT 48.049915 9.382113 9,000 202 117
2020-05-27 13:29:38 GMT 48.053101 9.383972 9,025 201 115
2020-05-27 13:29:35 GMT 48.055115 9.385139 9,050 201 115
2020-05-27 13:29:32 GMT 48.056107 9.385705 9,050 201 115
2020-05-27 13:29:28 GMT 48.058640 9.387062 9,050 199 115
2020-05-27 13:29:21 GMT 48.061935 9.388710 9,050 199 114
2020-05-27 13:29:17 GMT 48.063766 9.389603 9,050 198 111
2020-05-27 13:29:10 GMT 48.067703 9.391388 9,050 198 111
2020-05-27 13:29:07 GMT 48.068863 9.391902 9,050 198 110
2020-05-27 13:29:00 GMT 48.072556 9.393723 9,025 198 108
2020-05-27 13:28:57 GMT 48.073837 9.394341 9,025 198 108
2020-05-27 13:28:54 GMT 48.075302 9.395027 9,025 203 109
2020-05-27 13:28:49 GMT 48.077591 9.396332 9,000 204 108
2020-05-27 13:28:45 GMT 48.079422 9.397430 9,025 195 108
2020-05-27 13:28:41 GMT 48.081104 9.398099 9,000 192 108
2020-05-27 13:28:38 GMT 48.083084 9.398666 9,000 192 108
2020-05-27 13:28:34 GMT 48.084824 9.399216 9,000 192 109
2020-05-27 13:28:29 GMT 48.087345 9.400001 9,000 192 110
2020-05-27 13:28:26 GMT 48.088650 9.400423 9,000 192 110
2020-05-27 13:28:22 GMT 48.090912 9.401138 9,000 189 114
2020-05-27 13:28:18 GMT 48.092422 9.401619 9,000 189 114
2020-05-27 13:28:15 GMT 48.094048 9.402114 9,000 192 110
2020-05-27 13:28:12 GMT 48.095764 9.402580 8,950 191 111
2020-05-27 13:28:08 GMT 48.097549 9.403061 8,975 189 114
2020-05-27 13:28:05 GMT 48.099380 9.403473 8,950 192 115
2020-05-27 13:28:00 GMT 48.101944 9.404434 8,950 203 115
2020-05-27 13:27:56 GMT 48.103729 9.405635 8,925 216 112
2020-05-27 13:27:46 GMT 48.107712 9.410957 8,950 223 112
2020-05-27 13:27:39 GMT 48.110641 9.414871 8,950 220 115
2020-05-27 13:27:36 GMT 48.111786 9.416245 8,950 219 115
2020-05-27 13:27:28 GMT 48.114899 9.419952 8,950 223 116
2020-05-27 13:27:25 GMT 48.116089 9.421669 8,950 238 114
2020-05-27 13:27:17 GMT 48.117649 9.427115 9,000 255 111
2020-05-27 13:27:13 GMT 48.118286 9.430939 9,000 255 111
2020-05-27 13:27:10 GMT 48.118973 9.434509 8,975 254 111
2020-05-27 13:27:07 GMT 48.119614 9.437805 8,975 252 111
2020-05-27 13:27:03 GMT 48.119614 9.437805 8,975 252 111
2020-05-27 13:26:58 GMT 48.120396 9.441481 9,000 252 111
2020-05-27 13:26:55 GMT 48.120911 9.443735 8,975 253 111
2020-05-27 13:26:47 GMT 48.122040 9.449753 9,025 255 109
2020-05-27 13:26:43 GMT 48.122543 9.452225 9,025 254 108
2020-05-27 13:26:37 GMT 48.123505 9.456894 9,025 255 107
2020-05-27 13:26:34 GMT 48.123871 9.459160 9,000 259 107
2020-05-27 13:26:29 GMT 48.124146 9.462662 9,025 272 105
2020-05-27 13:26:25 GMT 48.123981 9.466060 9,000 273 105
2020-05-27 13:26:20 GMT 48.123886 9.469511 9,000 272 105
2020-05-27 13:26:15 GMT 48.123825 9.473236 9,000 271 105
2020-05-27 13:26:11 GMT 48.123825 9.476395 9,000 270 105
2020-05-27 13:26:07 GMT 48.123825 9.478661 9,000 269 106
2020-05-27 13:26:04 GMT 48.123825 9.480858 9,000 269 106
2020-05-27 13:25:57 GMT 48.123917 9.486488 9,000 267 105
2020-05-27 13:25:54 GMT 48.123981 9.488173 9,000 267 105
2020-05-27 13:25:46 GMT 48.124214 9.494230 9,000 268 105
2020-05-27 13:25:36 GMT 48.124374 9.501114 9,000 270 106
2020-05-27 13:25:31 GMT 48.124401 9.505216 8,975 269 108
2020-05-27 13:25:26 GMT 48.124447 9.511695 8,975 269 109
2020-05-27 13:25:16 GMT 48.124538 9.519372 8,950 271 109
2020-05-27 13:25:13 GMT 48.124538 9.519372 8,975 272 109
2020-05-27 13:25:06 GMT 48.124466 9.523293 8,950 271 109
2020-05-27 13:25:03 GMT 48.124493 9.525639 8,950 271 108
2020-05-27 13:24:59 GMT 48.124447 9.529372 8,950 272 107
2020-05-27 13:24:56 GMT 48.124374 9.531738 8,950 273 107
2020-05-27 13:24:47 GMT 48.124237 9.538261 8,950 271 107
2020-05-27 13:24:43 GMT 48.124191 9.546844 8,950 272 108
2020-05-27 13:24:35 GMT 48.124191 9.546844 8,950 270 108
2020-05-27 13:24:30 GMT 48.124168 9.550922 8,925 270 108
2020-05-27 13:24:25 GMT 48.124123 9.554303 8,925 272 108
2020-05-27 13:24:22 GMT 48.124123 9.556486 8,925 270 108
2020-05-27 13:24:16 GMT 48.124146 9.560921 8,925 268 108
2020-05-27 13:24:13 GMT 48.124237 9.563530 8,925 269 108
2020-05-27 13:24:08 GMT 48.124237 9.566483 8,925 271 108
2020-05-27 13:24:05 GMT 48.124214 9.569303 8,925 271 108
2020-05-27 13:23:58 GMT 48.124191 9.574036 8,950 270 107
2020-05-27 13:23:55 GMT 48.124146 9.576988 8,925 269 107
2020-05-27 13:23:50 GMT 48.124168 9.580642 8,925 274 106
2020-05-27 13:23:43 GMT 48.123871 9.585297 8,925 276 106
2020-05-27 13:23:40 GMT 48.123703 9.587754 8,925 276 106
2020-05-27 13:23:37 GMT 48.123505 9.590309 8,900 276 106
2020-05-27 13:23:33 GMT 48.123421 9.592262 8,900 277 106
2020-05-27 13:23:29 GMT 48.123142 9.595501 8,900 277 106
2020-05-27 13:23:24 GMT 48.122864 9.599236 8,900 276 106
2020-05-27 13:23:19 GMT 48.122677 9.603318 8,875 276 106
2020-05-27 13:23:15 GMT 48.122120 9.608741 8,875 280 106
2020-05-27 13:23:12 GMT 48.122120 9.608741 8,875 279 107
2020-05-27 13:23:04 GMT 48.121628 9.614067 8,875 276 109
2020-05-27 13:23:01 GMT 48.121513 9.615925 8,875 277 108
2020-05-27 13:22:55 GMT 48.121048 9.620854 8,900 280 108
2020-05-27 13:22:51 GMT 48.120804 9.623543 8,875 279 109
2020-05-27 13:22:43 GMT 48.120163 9.630080 8,875 277 111
2020-05-27 13:22:38 GMT 48.120026 9.633499 8,900 273 115
2020-05-27 13:22:33 GMT 48.119888 9.637550 8,875 274 114
2020-05-27 13:22:30 GMT 48.119789 9.639940 8,875 274 114
2020-05-27 13:22:23 GMT 48.119522 9.645447 8,900 276 112
2020-05-27 13:22:15 GMT 48.118954 9.653320 8,925 277 110
2020-05-27 13:22:03 GMT 48.118423 9.660896 8,950 276 109
2020-05-27 13:21:57 GMT 48.118210 9.664729 8,950 275 109
2020-05-27 13:21:53 GMT 48.116951 9.674730 8,975 282 108
2020-05-27 13:21:41 GMT 48.116364 9.677101 8,975 290 109
2020-05-27 13:21:33 GMT 48.114902 9.683251 8,975 289 108
2020-05-27 13:21:29 GMT 48.114532 9.684860 8,975 289 109
2020-05-27 13:21:22 GMT 48.113388 9.690216 8,950 287 109
2020-05-27 13:21:19 GMT 48.112995 9.692336 8,950 287 110
2020-05-27 13:21:12 GMT 48.111969 9.697701 8,950 287 111
2020-05-27 13:21:09 GMT 48.111599 9.699519 8,950 288 111
2020-05-27 13:21:03 GMT 48.110481 9.705012 8,975 284 112
2020-05-27 13:21:00 GMT 48.110001 9.707451 8,975 283 112
2020-05-27 13:20:52 GMT 48.108856 9.712257 8,975 327 105
2020-05-27 13:20:47 GMT 48.106750 9.714386 9,000 331 104
2020-05-27 13:20:40 GMT 48.103638 9.717133 9,000 330 105
2020-05-27 13:20:36 GMT 48.102127 9.718437 9,000 329 106
2020-05-27 13:20:30 GMT 48.099682 9.720788 9,000 327 106
2020-05-27 13:20:24 GMT 48.097229 9.723175 9,000 324 106
2020-05-27 13:20:20 GMT 48.095539 9.725084 9,000 323 107
2020-05-27 13:20:16 GMT 48.093887 9.726677 9,025 349 102
2020-05-27 13:20:10 GMT 48.089394 9.727196 9,050 0 102
2020-05-27 13:20:07 GMT 48.089394 9.727196 9,025 1 102
2020-05-27 13:20:02 GMT 48.087570 9.727089 9,025 1 102
2020-05-27 13:19:59 GMT 48.086086 9.727055 9,000 1 102
2020-05-27 13:19:56 GMT 48.084732 9.727020 9,000 1 102
2020-05-27 13:19:52 GMT 48.082855 9.726952 9,000 1 103
2020-05-27 13:19:49 GMT 48.081207 9.726883 9,000 1 102
2020-05-27 13:19:46 GMT 48.079803 9.726844 9,000 0 102
2020-05-27 13:19:43 GMT 48.077866 9.726814 9,000 0 103
2020-05-27 13:19:39 GMT 48.076263 9.726844 8,975 359 103
2020-05-27 13:19:36 GMT 48.075165 9.726883 8,975 359 103
2020-05-27 13:19:30 GMT 48.071960 9.726952 8,950 1 102
2020-05-27 13:19:26 GMT 48.070358 9.726883 8,950 355 102
2020-05-27 13:19:22 GMT 48.068481 9.727364 8,950 332 103
2020-05-27 13:19:19 GMT 48.067280 9.728323 8,925 332 104
2020-05-27 13:19:15 GMT 48.065689 9.729561 8,900 333 105
2020-05-27 13:19:09 GMT 48.062763 9.731844 8,900 333 104
2020-05-27 13:19:05 GMT 48.061340 9.732925 8,900 332 104
2020-05-27 13:18:59 GMT 48.058620 9.734943 8,900 342 104
2020-05-27 13:18:55 GMT 48.056808 9.735809 8,900 341 103
2020-05-27 13:18:51 GMT 48.054993 9.736845 8,900 324 104
2020-05-27 13:18:46 GMT 48.052803 9.739873 8,900 315 104
2020-05-27 13:18:39 GMT 48.050755 9.743112 8,900 313 104
2020-05-27 13:18:35 GMT 48.049576 9.745079 8,900 312 104
2020-05-27 13:18:31 GMT 48.047401 9.751493 8,875 287 108
2020-05-27 13:18:25 GMT 48.047401 9.751493 8,900 284 108
2020-05-27 13:18:19 GMT 48.046646 9.756134 8,875 284 111
2020-05-27 13:18:15 GMT 48.046143 9.759155 8,850 284 113
2020-05-27 13:18:08 GMT 48.045216 9.764381 8,825 295 113
2020-05-27 13:18:02 GMT 48.043072 9.767691 8,900 323 107
2020-05-27 13:17:57 GMT 48.040741 9.770210 8,900 324 107
2020-05-27 13:17:53 GMT 48.039505 9.771584 8,900 324 107
2020-05-27 13:17:49 GMT 48.037533 9.773888 8,900 323 107
2020-05-27 13:17:44 GMT 48.036278 9.775226 8,900 350 103
2020-05-27 13:17:38 GMT 48.033325 9.776321 8,925 355 103
2020-05-27 13:17:35 GMT 48.031296 9.776635 8,925 354 103
2020-05-27 13:17:31 GMT 48.029667 9.776917 8,925 353 102
2020-05-27 13:17:28 GMT 48.028519 9.777077 8,925 353 102
2020-05-27 13:17:24 GMT 48.026596 9.777489 8,925 353 102
2020-05-27 13:17:18 GMT 48.023846 9.778043 8,900 353 102
2020-05-27 13:17:14 GMT 48.021797 9.778466 8,900 352 103
2020-05-27 13:17:08 GMT 48.018959 9.778818 8,900 0 103
2020-05-27 13:17:04 GMT 48.017189 9.778466 8,900 10 102
2020-05-27 13:17:00 GMT 48.015049 9.777902 8,900 12 102
2020-05-27 13:16:57 GMT 48.014008 9.777557 8,900 12 102
2020-05-27 13:16:53 GMT 48.012257 9.776917 8,900 14 103
2020-05-27 13:16:50 GMT 48.010529 9.776184 8,900 17 102
2020-05-27 13:16:44 GMT 48.007832 9.774945 8,900 17 103
2020-05-27 13:16:39 GMT 48.005833 9.774029 8,875 16 103
2020-05-27 13:16:33 GMT 48.002991 9.772761 8,875 15 103
2020-05-27 13:16:29 GMT 48.000896 9.771916 8,875 13 104
2020-05-27 13:16:24 GMT 47.998474 9.771071 8,875 14 104
2020-05-27 13:16:20 GMT 47.996147 9.770085 8,875 26 104
2020-05-27 13:16:17 GMT 47.995514 9.769661 8,875 30 103
2020-05-27 13:16:13 GMT 47.993820 9.768043 8,900 35 103
2020-05-27 13:16:07 GMT 47.990936 9.764733 8,875 37 105
2020-05-27 13:16:03 GMT 47.989723 9.763395 8,875 36 105
2020-05-27 13:15:57 GMT 47.987549 9.761009 8,875 36 105
2020-05-27 13:15:53 GMT 47.985947 9.759224 8,875 36 105
2020-05-27 13:15:47 GMT 47.983566 9.756546 8,900 36 105
2020-05-27 13:15:43 GMT 47.981903 9.754803 8,900 35 106
2020-05-27 13:15:37 GMT 47.979538 9.752220 8,900 35 106
2020-05-27 13:15:32 GMT 47.977901 9.750437 8,900 37 106
2020-05-27 13:15:28 GMT 47.976242 9.748444 8,900 40 106
2020-05-27 13:15:25 GMT 47.975246 9.747127 8,900 33 105
2020-05-27 13:15:20 GMT 47.972626 9.745148 8,900 7 104
2020-05-27 13:15:17 GMT 47.971161 9.744804 8,900 3 106
2020-05-27 13:15:13 GMT 47.968964 9.744736 8,900 2 106
2020-05-27 13:15:08 GMT 47.967148 9.744591 8,900 1 106
2020-05-27 13:15:05 GMT 47.965759 9.744530 8,900 0 106
2020-05-27 13:15:02 GMT 47.964020 9.744530 8,900 0 106
2020-05-27 13:14:57 GMT 47.959076 9.744461 8,900 0 106
2020-05-27 13:14:52 GMT 47.959076 9.744461 8,900 0 105
2020-05-27 13:14:49 GMT 47.957336 9.744461 8,900 0 106
2020-05-27 13:14:46 GMT 47.956394 9.744521 8,925 359 106
2020-05-27 13:14:42 GMT 47.954086 9.744598 8,900 359 107
2020-05-27 13:14:38 GMT 47.952301 9.744667 8,925 359 107
2020-05-27 13:14:35 GMT 47.951065 9.744736 8,925 359 107
2020-05-27 13:14:32 GMT 47.949097 9.744804 8,925 359 106
2020-05-27 13:14:27 GMT 47.946762 9.744873 8,950 359 105
2020-05-27 13:14:21 GMT 47.944103 9.745014 8,925 358 105
2020-05-27 13:14:17 GMT 47.942001 9.745148 8,925 358 106
2020-05-27 13:14:11 GMT 47.939209 9.745285 8,925 359 106
2020-05-27 13:14:07 GMT 47.937286 9.745422 8,950 359 104
2020-05-27 13:14:02 GMT 47.934357 9.745491 8,950 359 103
2020-05-27 13:13:57 GMT 47.932278 9.745577 8,950 358 103
2020-05-27 13:13:51 GMT 47.929504 9.745766 8,950 358 103
2020-05-27 13:13:45 GMT 47.925934 9.746040 8,950 356 104
2020-05-27 13:13:41 GMT 47.924423 9.746109 8,950 357 104
2020-05-27 13:13:38 GMT 47.922958 9.746246 8,950 356 104
2020-05-27 13:13:34 GMT 47.921265 9.746452 8,950 355 104
2020-05-27 13:13:31 GMT 47.919708 9.746704 8,950 354 103
2020-05-27 13:13:27 GMT 47.918106 9.747002 8,975 352 103
2020-05-27 13:13:20 GMT 47.914764 9.747688 8,975 352 103
2020-05-27 13:13:17 GMT 47.913300 9.748032 8,975 353 103
2020-05-27 13:13:11 GMT 47.909958 9.748718 8,975 353 104
2020-05-27 13:13:08 GMT 47.908401 9.748993 8,975 353 104
2020-05-27 13:13:00 GMT 47.905060 9.749680 8,975 352 105
2020-05-27 13:12:57 GMT 47.903595 9.749954 8,975 352 104
2020-05-27 13:12:50 GMT 47.900253 9.750710 8,950 351 104
2020-05-27 13:12:47 GMT 47.898808 9.751141 8,950 350 104
2020-05-27 13:12:40 GMT 47.895447 9.752151 8,975 348 103
2020-05-27 13:12:37 GMT 47.893982 9.752632 8,950 346 103
2020-05-27 13:12:30 GMT 47.890732 9.753868 8,950 348 102
2020-05-27 13:12:25 GMT 47.888378 9.754380 8,950 354 102
2020-05-27 13:12:20 GMT 47.885971 9.754555 8,950 0 102
2020-05-27 13:12:16 GMT 47.884140 9.754486 8,950 5 102
2020-05-27 13:12:12 GMT 47.882328 9.754240 8,925 7 102
2020-05-27 13:12:09 GMT 47.881119 9.753937 8,925 13 104
2020-05-27 13:12:06 GMT 47.879333 9.753319 8,925 13 105
2020-05-27 13:12:03 GMT 47.877720 9.752761 8,900 12 106
2020-05-27 13:12:00 GMT 47.876465 9.752338 8,900 12 106
2020-05-27 13:11:55 GMT 47.874435 9.751808 8,900 4 107
2020-05-27 13:11:52 GMT 47.872784 9.751563 8,900 4 107
2020-05-27 13:11:48 GMT 47.870644 9.751141 8,900 12 106
2020-05-27 13:11:45 GMT 47.868690 9.749944 8,900 35 105
2020-05-27 13:11:39 GMT 47.866779 9.747690 8,950 49 103
2020-05-27 13:11:36 GMT 47.865803 9.746000 8,925 50 105
2020-05-27 13:11:32 GMT 47.864639 9.743980 8,925 49 104
2020-05-27 13:11:27 GMT 47.863194 9.741493 8,950 48 104
2020-05-27 13:11:24 GMT 47.862358 9.740014 8,950 48 103
2020-05-27 13:11:19 GMT 47.860519 9.736908 8,950 48 103
2020-05-27 13:11:15 GMT 47.859425 9.735154 8,950 49 102
2020-05-27 13:11:11 GMT 47.858231 9.733063 8,950 50 104
2020-05-27 13:11:08 GMT 47.857315 9.731415 8,950 50 103
2020-05-27 13:11:05 GMT 47.856262 9.729492 8,950 48 103
2020-05-27 13:11:02 GMT 47.855164 9.727638 8,950 47 102
2020-05-27 13:10:59 GMT 47.854340 9.726265 8,950 44 102
2020-05-27 13:10:55 GMT 47.852955 9.724309 8,950 45 103
2020-05-27 13:10:51 GMT 47.851868 9.722351 8,925 58 104
2020-05-27 13:10:48 GMT 47.850952 9.720013 8,925 70 104
2020-05-27 13:10:45 GMT 47.850540 9.718300 8,950 73 104
2020-05-27 13:10:39 GMT 47.849762 9.713768 8,950 75 104
2020-05-27 13:10:35 GMT 47.849277 9.711210 8,950 74 104
2020-05-27 13:10:28 GMT 47.848251 9.706078 8,925 71 107
2020-05-27 13:10:25 GMT 47.847881 9.704449 8,925 71 107
2020-05-27 13:10:18 GMT 47.846809 9.699449 8,925 77 109
2020-05-27 13:10:15 GMT 47.846390 9.696773 8,925 77 109
2020-05-27 13:10:11 GMT 47.845917 9.693443 8,925 76 109
2020-05-27 13:10:08 GMT 47.845734 9.692139 8,925 76 109
2020-05-27 13:10:05 GMT 47.845276 9.689461 8,925 74 109
2020-05-27 13:09:58 GMT 47.844360 9.684723 8,925 76 109
2020-05-27 13:09:55 GMT 47.843922 9.682406 8,925 80 110
2020-05-27 13:09:50 GMT 47.843597 9.678040 8,925 94 110
2020-05-27 13:09:45 GMT 47.843739 9.674377 8,950 95 110
2020-05-27 13:09:42 GMT 47.843994 9.669273 8,950 95 108
2020-05-27 13:09:37 GMT 47.843994 9.669273 8,950 96 108
2020-05-27 13:09:34 GMT 47.844200 9.666842 8,950 99 108
2020-05-27 13:09:31 GMT 47.844406 9.664948 8,950 100 109
2020-05-27 13:09:27 GMT 47.844772 9.662132 8,950 98 110
2020-05-27 13:09:24 GMT 47.845135 9.659588 8,950 99 110
2020-05-27 13:09:21 GMT 47.845413 9.656982 8,950 99 110
2020-05-27 13:09:17 GMT 47.845825 9.653137 8,950 98 109
2020-05-27 13:09:14 GMT 47.845970 9.652123 8,950 98 109
2020-05-27 13:09:10 GMT 47.846420 9.647644 8,950 98 110
2020-05-27 13:09:05 GMT 47.846695 9.645035 8,950 97 110
2020-05-27 13:09:02 GMT 47.846878 9.642632 8,925 102 113
2020-05-27 13:08:58 GMT 47.847153 9.639885 8,925 100 111
2020-05-27 13:08:55 GMT 47.847832 9.634869 8,925 102 111
2020-05-27 13:08:52 GMT 47.847832 9.634869 8,950 104 111
2020-05-27 13:08:47 GMT 47.848434 9.631439 8,925 103 112
2020-05-27 13:08:44 GMT 47.848846 9.629105 8,925 103 112
2020-05-27 13:08:37 GMT 47.849648 9.623953 8,950 102 113
2020-05-27 13:08:34 GMT 47.849976 9.621629 8,950 101 113
2020-05-27 13:08:27 GMT 47.850765 9.616206 8,950 103 114
2020-05-27 13:08:24 GMT 47.851044 9.614234 8,950 103 114
2020-05-27 13:08:21 GMT 47.851463 9.611840 8,950 102 114
2020-05-27 13:08:17 GMT 47.851974 9.608459 8,950 102 113
2020-05-27 13:08:14 GMT 47.852303 9.606135 8,950 102 113
2020-05-27 13:08:07 GMT 47.853001 9.601065 8,950 101 116
2020-05-27 13:08:04 GMT 47.853836 9.596008 8,950 105 117
2020-05-27 13:08:01 GMT 47.853836 9.596008 9,000 108 117
2020-05-27 13:07:54 GMT 47.854935 9.590996 9,175 109 115
2020-05-27 13:07:49 GMT 47.855701 9.587473 9,000 105 120
2020-05-27 13:07:44 GMT 47.856583 9.583099 9,000 105 120
2020-05-27 13:07:40 GMT 47.857132 9.580353 9,100 110 118
2020-05-27 13:07:36 GMT 47.857700 9.576909 9,050 106 120
2020-05-27 13:07:33 GMT 47.858185 9.574722 9,050 107 119
2020-05-27 13:07:29 GMT 47.859146 9.570712 9,100 110 118
2020-05-27 13:07:24 GMT 47.860031 9.567120 9,150 110 116
2020-05-27 13:07:19 GMT 47.860821 9.563739 9,150 110 113
2020-05-27 13:07:15 GMT 47.861614 9.560570 9,175 109 111
2020-05-27 13:07:09 GMT 47.862579 9.556664 9,200 110 110
2020-05-27 13:07:05 GMT 47.863220 9.554123 9,200 111 109
2020-05-27 13:07:02 GMT 47.863754 9.552119 9,200 111 109
2020-05-27 13:06:59 GMT 47.864452 9.549373 9,200 110 108
2020-05-27 13:06:56 GMT 47.865059 9.547190 9,200 109 108
2020-05-27 13:06:53 GMT 47.865616 9.544725 9,200 110 107
2020-05-27 13:06:49 GMT 47.866196 9.542381 9,200 110 107
2020-05-27 13:06:46 GMT 47.866837 9.539909 9,200 110 107
2020-05-27 13:06:42 GMT 47.867294 9.538124 9,200 110 107
2020-05-27 13:06:39 GMT 47.867989 9.535217 9,200 110 107
2020-05-27 13:06:35 GMT 47.868713 9.532356 9,250 110 107
2020-05-27 13:06:31 GMT 47.869339 9.529724 9,225 109 106
2020-05-27 13:06:28 GMT 47.869713 9.528104 9,250 108 105
2020-05-27 13:06:25 GMT 47.870365 9.525146 9,250 107 104
2020-05-27 13:06:19 GMT 47.871094 9.521370 9,250 104 105
2020-05-27 13:06:14 GMT 47.871716 9.518104 9,225 121 110
2020-05-27 13:06:11 GMT 47.872147 9.516357 9,225 112 108
2020-05-27 13:06:04 GMT 47.874115 9.510864 9,250 121 109
2020-05-27 13:05:58 GMT 47.875484 9.507540 9,250 118 109
2020-05-27 13:05:55 GMT 47.876228 9.505568 9,250 118 109
2020-05-27 13:05:51 GMT 47.877159 9.502892 9,250 118 109
2020-05-27 13:05:43 GMT 47.879242 9.497543 9,250 119 110
2020-05-27 13:05:40 GMT 47.879814 9.495920 9,250 118 109
2020-05-27 13:05:34 GMT 47.881622 9.491158 9,225 120 110
2020-05-27 13:05:31 GMT 47.882446 9.489098 9,275 118 111
2020-05-27 13:05:23 GMT 47.884563 9.483736 9,250 118 111
2020-05-27 13:05:20 GMT 47.884964 9.482712 9,250 118 111
2020-05-27 13:05:13 GMT 47.886845 9.477539 9,300 117 108
2020-05-27 13:05:10 GMT 47.887543 9.475497 9,300 117 107
2020-05-27 13:05:02 GMT 47.889217 9.470426 9,275 118 110
2020-05-27 13:04:59 GMT 47.890137 9.467949 9,250 118 111
2020-05-27 13:04:51 GMT 47.893295 9.459366 9,250 119 112
2020-05-27 13:04:47 GMT 47.893295 9.459366 9,250 119 113
2020-05-27 13:04:43 GMT 47.893845 9.457855 9,250 118 113
2020-05-27 13:04:40 GMT 47.894806 9.455177 9,250 117 114
2020-05-27 13:04:36 GMT 47.895782 9.452538 9,250 117 114
2020-05-27 13:04:32 GMT 47.896637 9.449821 9,250 113 115
2020-05-27 13:04:29 GMT 47.897320 9.447468 9,250 119 115
2020-05-27 13:04:22 GMT 47.899338 9.443024 9,275 128 115
2020-05-27 13:04:19 GMT 47.900299 9.441200 9,275 128 116
2020-05-27 13:04:16 GMT 47.901306 9.439316 9,275 127 117
2020-05-27 13:04:11 GMT 47.902809 9.436411 9,350 125 114
2020-05-27 13:04:06 GMT 47.904346 9.433312 9,300 126 118
2020-05-27 13:04:03 GMT 47.905975 9.429909 9,325 124 116
2020-05-27 13:03:56 GMT 47.907604 9.426270 9,350 124 115
2020-05-27 13:03:51 GMT 47.909042 9.423111 9,350 124 115
2020-05-27 13:03:47 GMT 47.910725 9.419650 9,350 127 115
2020-05-27 13:03:41 GMT 47.912399 9.416269 9,350 125 116
2020-05-27 13:03:36 GMT 47.913849 9.413292 9,375 125 114
2020-05-27 13:03:30 GMT 47.915634 9.409653 9,400 126 113
2020-05-27 13:03:26 GMT 47.917011 9.406691 9,375 126 113
2020-05-27 13:03:21 GMT 47.918594 9.403733 9,375 129 113
2020-05-27 13:03:18 GMT 47.919800 9.401894 9,375 139 113
2020-05-27 13:03:15 GMT 47.920853 9.400658 9,375 145 113
2020-05-27 13:03:09 GMT 47.923668 9.398452 9,400 155 113
2020-05-27 13:03:05 GMT 47.925251 9.397325 9,375 155 114
2020-05-27 13:02:59 GMT 47.930183 9.393944 9,375 153 114
2020-05-27 13:02:56 GMT 47.930183 9.393944 9,375 152 114
2020-05-27 13:02:51 GMT 47.932465 9.392184 9,375 152 114
2020-05-27 13:02:48 GMT 47.934326 9.390775 9,375 153 113
2020-05-27 13:02:45 GMT 47.935043 9.390221 9,375 153 112
2020-05-27 13:02:41 GMT 47.937286 9.388573 9,375 153 112
2020-05-27 13:02:37 GMT 47.938889 9.387395 9,350 153 113
2020-05-27 13:02:30 GMT 47.942276 9.385002 9,350 153 113
2020-05-27 13:02:27 GMT 47.943592 9.384014 9,350 153 113
2020-05-27 13:02:24 GMT 47.944660 9.383240 9,325 152 114
2020-05-27 13:02:21 GMT 47.946396 9.381844 9,300 150 113
2020-05-27 13:02:17 GMT 47.948292 9.380282 9,325 159 112
2020-05-27 13:02:14 GMT 47.949364 9.379648 9,325 162 112
2020-05-27 13:02:11 GMT 47.950947 9.378873 9,325 163 112
2020-05-27 13:02:08 GMT 47.952667 9.378099 9,325 163 111
2020-05-27 13:02:05 GMT 47.954315 9.377380 9,325 163 111
2020-05-27 13:02:01 GMT 47.956116 9.376549 9,325 163 112
2020-05-27 13:01:54 GMT 47.959419 9.375141 9,325 165 112
2020-05-27 13:01:50 GMT 47.961468 9.374366 9,325 165 112
2020-05-27 13:01:47 GMT 47.963051 9.373732 9,325 163 112
2020-05-27 13:01:44 GMT 47.964661 9.372986 9,325 162 112
2020-05-27 13:01:40 GMT 47.966728 9.372042 9,325 162 112
2020-05-27 13:01:34 GMT 47.969475 9.370634 9,325 158 109
2020-05-27 13:01:30 GMT 47.971390 9.369415 9,325 147 109
2020-05-27 13:01:24 GMT 47.973633 9.366119 9,300 125 108
2020-05-27 13:01:20 GMT 47.974594 9.364059 9,275 166 110
2020-05-27 13:01:14 GMT 47.976410 9.359999 9,300 122 107
2020-05-27 13:01:09 GMT 47.977669 9.356971 9,250 131 110
2020-05-27 13:01:03 GMT 47.979858 9.354446 9,275 173 108
2020-05-27 13:01:00 GMT 47.981689 9.353760 9,275 166 110
2020-05-27 13:00:57 GMT 47.983154 9.353210 9,300 170 109
2020-05-27 13:00:54 GMT 47.985023 9.352746 9,300 174 108
2020-05-27 13:00:50 GMT 47.986771 9.352524 9,275 174 109
2020-05-27 13:00:43 GMT 47.989723 9.351055 9,275 15 89
2020-05-27 13:00:39 GMT 47.991806 9.345451 9,275 112 104
2020-05-27 13:00:34 GMT 47.991806 9.345451 9,250 106 105
2020-05-27 13:00:31 GMT 47.992332 9.342604 9,275 104 104
2020-05-27 13:00:28 GMT 47.992538 9.341469 9,275 102 101
2020-05-27 13:00:24 GMT 47.993122 9.337675 9,300 100 100
2020-05-27 13:00:20 GMT 47.993217 9.333801 9,250 68 96
2020-05-27 13:00:13 GMT 47.992538 9.331238 9,250 49 92
2020-05-27 13:00:08 GMT 47.991028 9.328660 9,250 39 90
2020-05-27 13:00:03 GMT 47.989304 9.327604 9,050 350 89
2020-05-27 12:59:58 GMT 47.987022 9.327604 9,250 350 85
2020-05-27 12:59:53 GMT 47.985214 9.328148 9,200 350 86
2020-05-27 12:59:48 GMT 47.983253 9.328660 9,150 351 87
2020-05-27 12:59:43 GMT 47.981113 9.329224 9,125 351 89
2020-05-27 12:59:38 GMT 47.979034 9.329727 9,100 352 91
2020-05-27 12:59:33 GMT 47.977020 9.330208 9,075 351 91
2020-05-27 12:59:27 GMT 47.974777 9.330757 9,050 350 89
2020-05-27 12:59:22 GMT 47.972809 9.331306 9,025 351 88
2020-05-27 12:59:17 GMT 47.970749 9.331856 9,025 350 85
2020-05-27 12:59:12 GMT 47.968552 9.332405 9,025 350 80
2020-05-27 12:59:07 GMT 47.966400 9.332956 9,000 351 78
2020-05-27 12:59:01 GMT 47.964844 9.333366 8,975 350 78
2020-05-27 12:58:57 GMT 47.963238 9.333801 8,950 350 78
2020-05-27 12:58:51 GMT 47.961090 9.334396 8,875 350 80
2020-05-27 12:58:48 GMT 47.959946 9.334671 8,850 350 80
2020-05-27 12:58:41 GMT 47.957382 9.335426 8,825 349 79
2020-05-27 12:58:38 GMT 47.956421 9.335701 8,800 349 79
2020-05-27 12:58:31 GMT 47.953785 9.336548 8,750 348 79
2020-05-27 12:58:28 GMT 47.952808 9.336830 8,725 348 79
2020-05-27 12:58:21 GMT 47.950153 9.337745 8,650 347 79
2020-05-27 12:58:18 GMT 47.949085 9.338097 8,600 347 78
2020-05-27 12:58:10 GMT 47.946442 9.338997 8,575 347 78
2020-05-27 12:58:07 GMT 47.945435 9.339409 8,550 346 77
2020-05-27 12:58:00 GMT 47.943081 9.340280 8,525 345 77
2020-05-27 12:57:55 GMT 47.941170 9.341055 8,500 344 77
2020-05-27 12:57:51 GMT 47.939758 9.341675 8,450 345 77
2020-05-27 12:57:48 GMT 47.938469 9.342252 8,425 347 78
2020-05-27 12:57:41 GMT 47.936142 9.343097 8,350 346 80
2020-05-27 12:57:38 GMT 47.934952 9.343597 8,350 347 80
2020-05-27 12:57:30 GMT 47.932140 9.344576 8,275 349 81
2020-05-27 12:57:27 GMT 47.931107 9.344902 8,250 350 81
2020-05-27 12:57:20 GMT 47.928509 9.345633 8,225 349 79
2020-05-27 12:57:17 GMT 47.927536 9.345932 8,200 348 79
2020-05-27 12:57:09 GMT 47.924786 9.346830 8,150 348 78
2020-05-27 12:57:05 GMT 47.923340 9.347323 8,125 348 78
2020-05-27 12:57:00 GMT 47.921478 9.347957 8,100 348 78
2020-05-27 12:56:57 GMT 47.920258 9.348335 8,050 347 78
2020-05-27 12:56:49 GMT 47.917465 9.349297 8,050 347 77
2020-05-27 12:56:46 GMT 47.916550 9.349640 8,025 348 76
2020-05-27 12:56:42 GMT 47.914856 9.350189 8,000 349 77
2020-05-27 12:56:39 GMT 47.913895 9.350533 7,975 349 77
2020-05-27 12:56:36 GMT 47.912888 9.350807 7,950 349 77
2020-05-27 12:56:29 GMT 47.910446 9.351619 7,900 347 79
2020-05-27 12:56:25 GMT 47.908722 9.352253 7,875 346 78
2020-05-27 12:56:20 GMT 47.907001 9.352957 7,825 345 79
2020-05-27 12:56:17 GMT 47.905975 9.353348 7,800 345 79
2020-05-27 12:56:14 GMT 47.905197 9.353691 7,800 346 78
2020-05-27 12:56:09 GMT 47.903278 9.354436 7,775 347 76
2020-05-27 12:56:06 GMT 47.902393 9.354788 7,750 348 77
2020-05-27 12:56:01 GMT 47.900482 9.355351 7,650 349 82
2020-05-27 12:55:58 GMT 47.899612 9.355614 7,650 349 82
2020-05-27 12:55:54 GMT 47.898018 9.356126 7,625 348 80
2020-05-27 12:55:51 GMT 47.896202 9.356689 7,600 347 84
2020-05-27 12:55:48 GMT 47.895737 9.356901 7,600 348 80
2020-05-27 12:55:44 GMT 47.892883 9.357811 7,550 347 84
2020-05-27 12:55:36 GMT 47.891281 9.358292 7,500 347 81
2020-05-27 12:55:33 GMT 47.890381 9.358591 7,450 347 81
2020-05-27 12:55:28 GMT 47.888214 9.359390 7,400 347 81
2020-05-27 12:55:24 GMT 47.886612 9.360008 7,350 347 81
2020-05-27 12:55:16 GMT 47.883911 9.360915 7,275 348 83
2020-05-27 12:55:07 GMT 47.880615 9.362068 7,200 347 85
2020-05-27 12:55:03 GMT 47.878883 9.362676 7,150 347 84
2020-05-27 12:54:58 GMT 47.876816 9.363441 7,100 347 84
2020-05-27 12:54:55 GMT 47.876045 9.363732 7,100 347 84
2020-05-27 12:54:51 GMT 47.874664 9.364265 7,050 347 85
2020-05-27 12:54:47 GMT 47.872879 9.364859 7,000 347 87
2020-05-27 12:54:43 GMT 47.871140 9.365433 6,975 348 86
2020-05-27 12:54:40 GMT 47.869946 9.365845 6,950 347 86
2020-05-27 12:54:36 GMT 47.868736 9.366338 6,950 347 84
2020-05-27 12:54:32 GMT 47.867157 9.366875 6,925 347 84
2020-05-27 12:54:28 GMT 47.865196 9.367535 6,875 348 83
2020-05-27 12:54:25 GMT 47.864544 9.367817 6,875 349 83
2020-05-27 12:54:22 GMT 47.863243 9.368169 6,850 350 84
2020-05-27 12:54:19 GMT 47.862217 9.368450 6,825 349 83
2020-05-27 12:54:16 GMT 47.861240 9.368732 6,800 349 83
2020-05-27 12:54:07 GMT 47.857285 9.370070 6,750 347 82
2020-05-27 12:54:00 GMT 47.854816 9.370915 6,700 347 83
2020-05-27 12:53:56 GMT 47.853512 9.371408 6,650 346 82
2020-05-27 12:53:51 GMT 47.851776 9.372025 6,600 346 82
2020-05-27 12:53:46 GMT 47.849880 9.372746 6,600 347 83
2020-05-27 12:53:41 GMT 47.848110 9.373380 6,575 346 82
2020-05-27 12:53:36 GMT 47.846111 9.374155 6,525 346 83
2020-05-27 12:53:29 GMT 47.843456 9.375211 6,475 344 86
2020-05-27 12:53:25 GMT 47.841969 9.375845 6,450 344 85
2020-05-27 12:53:20 GMT 47.839508 9.376900 6,425 344 83
2020-05-27 12:53:15 GMT 47.838150 9.377465 6,400 344 83
2020-05-27 12:53:10 GMT 47.836521 9.378169 6,400 344 82
2020-05-27 12:53:05 GMT 47.834335 9.379166 6,350 344 82
2020-05-27 12:53:01 GMT 47.832798 9.379789 6,300 347 83
2020-05-27 12:52:56 GMT 47.831039 9.380402 6,250 347 83
2020-05-27 12:52:52 GMT 47.829254 9.381020 6,250 349 81
2020-05-27 12:52:48 GMT 47.827816 9.381479 6,250 348 82
2020-05-27 12:52:43 GMT 47.826324 9.381972 6,225 349 81
2020-05-27 12:52:39 GMT 47.824997 9.382393 6,175 348 82
2020-05-27 12:52:36 GMT 47.820602 9.383972 6,150 346 82
2020-05-27 12:52:28 GMT 47.820602 9.383972 6,100 345 82
2020-05-27 12:52:24 GMT 47.818878 9.384719 6,050 345 82
2020-05-27 12:52:20 GMT 47.817619 9.385212 6,025 344 83
2020-05-27 12:52:13 GMT 47.815292 9.386198 5,975 344 82
2020-05-27 12:52:07 GMT 47.812546 9.387324 5,925 346 80
2020-05-27 12:52:02 GMT 47.811291 9.387817 5,900 346 80
2020-05-27 12:51:59 GMT 47.810173 9.388240 5,600 350 79
2020-05-27 12:51:53 GMT 47.807877 9.389053 5,850 348 78
2020-05-27 12:51:49 GMT 47.806412 9.389534 5,850 349 76
2020-05-27 12:51:43 GMT 47.804260 9.390141 5,825 351 75
2020-05-27 12:51:38 GMT 47.802795 9.390495 5,750 352 78
2020-05-27 12:51:33 GMT 47.800629 9.390987 5,700 351 79
2020-05-27 12:51:28 GMT 47.799133 9.391388 5,600 350 79
2020-05-27 12:51:22 GMT 47.796997 9.392043 5,600 349 77
2020-05-27 12:51:19 GMT 47.795563 9.392487 5,350 343 75
2020-05-27 12:51:13 GMT 47.793694 9.393029 5,550 350 72
2020-05-27 12:51:06 GMT 47.791367 9.393663 5,500 349 73
2020-05-27 12:51:03 GMT 47.790527 9.393929 5,475 348 74
2020-05-27 12:50:57 GMT 47.788570 9.394578 5,350 343 75
2020-05-27 12:50:53 GMT 47.787037 9.395142 5,350 345 77
2020-05-27 12:50:46 GMT 47.784668 9.396194 5,300 343 75
2020-05-27 12:50:43 GMT 47.783314 9.396761 5,300 343 71
2020-05-27 12:50:37 GMT 47.781681 9.397606 5,250 341 68
2020-05-27 12:50:32 GMT 47.780380 9.398240 5,175 341 69
2020-05-27 12:50:25 GMT 47.778122 9.399353 5,050 342 68
2020-05-27 12:50:22 GMT 47.777306 9.399860 5,025 341 68
2020-05-27 12:50:17 GMT 47.775585 9.400705 4,950 344 68
2020-05-27 12:50:11 GMT 47.774094 9.401409 4,900 345 68
2020-05-27 12:50:07 GMT 47.772606 9.401973 4,725 349 72
2020-05-27 12:50:01 GMT 47.771027 9.402512 4,775 348 71
2020-05-27 12:49:56 GMT 47.768646 9.403267 4,700 347 74
2020-05-27 12:49:52 GMT 47.767578 9.403593 4,675 348 75
2020-05-27 12:49:46 GMT 47.765625 9.404228 4,625 348 76
2020-05-27 12:49:41 GMT 47.764114 9.404709 4,600 349 77
2020-05-27 12:49:36 GMT 47.762222 9.405283 4,300 348 79
2020-05-27 12:49:31 GMT 47.760456 9.405846 4,500 348 79
2020-05-27 12:49:26 GMT 47.758873 9.406410 4,450 348 78
2020-05-27 12:49:21 GMT 47.756870 9.407114 4,450 348 73
2020-05-27 12:49:17 GMT 47.755428 9.407607 4,400 350 74
2020-05-27 12:49:11 GMT 47.753471 9.408170 4,350 349 75
2020-05-27 12:49:03 GMT 47.750771 9.408875 4,275 351 75
2020-05-27 12:49:00 GMT 47.749840 9.409156 4,250 349 75
2020-05-27 12:48:55 GMT 47.747864 9.409790 4,200 346 74
2020-05-27 12:48:50 GMT 47.746441 9.410353 4,200 346 74
2020-05-27 12:48:44 GMT 47.744339 9.411095 4,150 348 70
2020-05-27 12:48:40 GMT 47.743149 9.411438 4,150 351 69
2020-05-27 12:48:34 GMT 47.741135 9.411973 4,100 348 71
2020-05-27 12:48:30 GMT 47.739880 9.412396 4,075 348 72
2020-05-27 12:48:20 GMT 47.736622 9.413593 4,000 346 70
2020-05-27 12:48:09 GMT 47.733456 9.414790 3,925 345 68
2020-05-27 12:48:03 GMT 47.731201 9.415695 3,875 345 68
2020-05-27 12:48:00 GMT 47.730198 9.416058 3,850 346 70
2020-05-27 12:47:54 GMT 47.728661 9.416692 3,825 343 72
2020-05-27 12:47:49 GMT 47.727169 9.417466 3,825 343 71
2020-05-27 12:47:43 GMT 47.724934 9.418452 3,775 344 67
2020-05-27 12:47:39 GMT 47.724052 9.418875 3,750 344 66
2020-05-27 12:47:35 GMT 47.722515 9.419509 3,750 345 64
2020-05-27 12:47:28 GMT 47.720840 9.420143 3,650 343 66
2020-05-27 12:47:23 GMT 47.719440 9.421058 3,600 326 72
2020-05-27 12:47:18 GMT 47.718201 9.423042 3,525 301 79
2020-05-27 12:47:09 GMT 47.716507 9.427849 3,375 298 79
2020-05-27 12:47:03 GMT 47.715439 9.430777 3,325 298 78
2020-05-27 12:46:58 GMT 47.714832 9.432608 3,300 299 76
2020-05-27 12:46:52 GMT 47.713577 9.436059 3,250 299 76
2020-05-27 12:46:48 GMT 47.713112 9.437256 3,225 299 75
2020-05-27 12:46:43 GMT 47.712250 9.439522 3,200 303 75
2020-05-27 12:46:38 GMT 47.711201 9.441974 3,150 303 76
2020-05-27 12:46:33 GMT 47.710320 9.444087 3,125 301 75
2020-05-27 12:46:28 GMT 47.709412 9.446388 3,075 301 77
2020-05-27 12:46:22 GMT 47.708405 9.448792 3,075 300 77
2020-05-27 12:46:16 GMT 47.707432 9.451623 3,000 297 80
2020-05-27 12:46:12 GMT 47.706734 9.453665 2,950 298 82
2020-05-27 12:46:08 GMT 47.705894 9.456059 2,950 298 80
2020-05-27 12:46:02 GMT 47.704826 9.459088 2,900 298 80
2020-05-27 12:45:57 GMT 47.704079 9.461200 2,850 303 79
2020-05-27 12:45:53 GMT 47.703102 9.463384 2,825 302 77
2020-05-27 12:45:47 GMT 47.702087 9.465889 2,800 302 77
2020-05-27 12:45:43 GMT 47.701263 9.467949 2,775 301 78
2020-05-27 12:45:37 GMT 47.700211 9.470558 2,750 298 76
2020-05-27 12:45:32 GMT 47.699471 9.472750 2,750 298 74
2020-05-27 12:45:27 GMT 47.698540 9.475285 2,700 300 72
2020-05-27 12:45:22 GMT 47.697842 9.477117 2,650 302 73
2020-05-27 12:45:16 GMT 47.696777 9.479828 2,575 301 77
2020-05-27 12:45:11 GMT 47.695999 9.481888 2,525 300 76
2020-05-27 12:45:06 GMT 47.695004 9.484300 2,450 298 76
2020-05-27 12:45:01 GMT 47.694210 9.486624 2,400 298 78
2020-05-27 12:44:55 GMT 47.693233 9.489370 2,325 297 79
2020-05-27 12:44:52 GMT 47.692535 9.491483 2,250 299 79
2020-05-27 12:44:45 GMT 47.691559 9.494179 2,175 301 79
2020-05-27 12:44:41 GMT 47.690735 9.496239 2,100 301 80
2020-05-27 12:44:35 GMT 47.689682 9.498985 2,025 297 81
2020-05-27 12:44:31 GMT 47.688950 9.501183 1,950 295 81
2020-05-27 12:44:26 GMT 47.687927 9.504441 1,800 297 83
2020-05-27 12:44:21 GMT 47.687229 9.506554 1,750 301 84
2020-05-27 12:44:15 GMT 47.685970 9.509583 1,700 300 83
2020-05-27 12:44:11 GMT 47.685196 9.511688 1,600 298 85
2020-05-27 12:44:05 GMT 47.684235 9.514709 1,550 295 83
2020-05-27 12:44:00 GMT 47.683411 9.517250 1,475 297 83
2020-05-27 12:43:55 GMT 47.682495 9.519859 1,450 301 80
2020-05-27 12:43:50 GMT 47.681595 9.522048 1,425 305 78
2020-05-27 12:43:45 GMT 47.680435 9.524254 1,400 323 70
2020-05-27 12:43:39 GMT 47.679035 9.525639 1,300 339 70
2020-05-27 12:43:34 GMT 47.677185 9.525352 1,275 36 65
2020-05-27 12:43:30 GMT 47.676453 9.524323 1,275 56 62

Making use of Plane Finder data

You are free to use the raw flight data, aircraft information and images provided in this report for your own purposes provided the data is correctly attributed to Plane Finder. We ask that you please credit Plane Finder and link to planefinder.net in close proximity to the content.

Optionally one of the following logos (no smaller then 150x24px) can be used and must link to planefinder.net

Embedding the Plane Finder map

You are welcome to embed the Plane Finder playback map on your website to offer visitors a more interactive experience. We suggest using the following HTML code:

<iframe src="//planefinder.net/data/report/trollface-drawn-in-sky/map" width="800" height="600" seamless="seamless"></iframe>

Where our data comes from

Plane Finder has a global network of data feeds and antenna radars that receive data broadcast directly from aircraft. The primary technologies used are ADS-B and MLAT. We also show feeds from the FAA and a FLARM glider feed.

Click here to find out more about the Plane Finder network.

How we collect our data